<?xml version='1.0' encoding='UTF-8'?><gpx version="1.1" creator="JPX - https://github.com/jenetics/jpx" xmlns="http://www.topografix.com/GPX/1/1"><trk><trkseg><trkpt lat="48.991083655799635" lon="2.432574379812807"><ele>69.0</ele><time>2026-03-30T23:34:12.997Z</time></trkpt><trkpt lat="48.991154327015224" lon="2.4325645845060757"><ele>69.0</ele><time>2026-03-30T23:34:58.999Z</time></trkpt><trkpt lat="48.99117964804778" lon="2.4324751908427644"><ele>69.0</ele><time>2026-03-30T23:35:03.999Z</time></trkpt><trkpt lat="48.991253310472985" lon="2.4323711249214415"><ele>69.0</ele><time>2026-03-30T23:35:06.999Z</time></trkpt><trkpt lat="48.991314691198795" lon="2.432290684134882"><ele>69.0</ele><time>2026-03-30T23:35:09.999Z</time></trkpt><trkpt lat="48.99140685564926" lon="2.4322807319111797"><ele>69.0</ele><time>2026-03-30T23:35:12.999Z</time></trkpt><trkpt lat="48.99145695969655" lon="2.4323611122840187"><ele>69.0</ele><time>2026-03-30T23:35:44.999Z</time></trkpt><trkpt lat="48.991529561691564" lon="2.4324591447344948"><ele>69.0</ele><time>2026-03-30T23:35:46.999Z</time></trkpt><trkpt lat="48.99159040407041" lon="2.4325446646911386"><ele>69.0</ele><time>2026-03-30T23:35:48.999Z</time></trkpt><trkpt lat="48.991634730421" lon="2.4326244265498747"><ele>69.0</ele><time>2026-03-30T23:35:52.999Z</time></trkpt><trkpt lat="48.991690820432346" lon="2.432714546128908"><ele>69.0</ele><time>2026-03-30T23:36:28Z</time></trkpt><trkpt lat="48.991760450996004" lon="2.4327580651279104"><ele>69.0</ele><time>2026-03-30T23:36:30Z</time></trkpt><trkpt lat="48.99183384420521" lon="2.4327103250596935"><ele>69.0</ele><time>2026-03-30T23:36:32Z</time></trkpt><trkpt lat="48.99191266910904" lon="2.4325805171323958"><ele>69.0</ele><time>2026-03-30T23:36:34Z</time></trkpt><trkpt lat="48.99195813649362" lon="2.4325030006719537"><ele>69.0</ele><time>2026-03-30T23:36:35Z</time></trkpt><trkpt lat="48.992039275092544" lon="2.4323931659316607"><ele>69.0</ele><time>2026-03-30T23:36:37Z</time></trkpt><trkpt lat="48.99204634854429" lon="2.4322321525138135"><ele>69.0</ele><time>2026-03-30T23:36:39Z</time></trkpt><trkpt lat="48.991943321977956" lon="2.4321267497373618"><ele>69.0</ele><time>2026-03-30T23:36:41Z</time></trkpt><trkpt lat="48.99187218340441" lon="2.432129887405512"><ele>69.0</ele><time>2026-03-30T23:36:42Z</time></trkpt><trkpt lat="48.9918131176101" lon="2.43207207438493"><ele>69.0</ele><time>2026-03-30T23:36:43Z</time></trkpt><trkpt lat="48.991751285901074" lon="2.4319904312675775"><ele>69.0</ele><time>2026-03-30T23:36:44Z</time></trkpt><trkpt lat="48.99167235603349" lon="2.431879688752322"><ele>69.0</ele><time>2026-03-30T23:36:45Z</time></trkpt><trkpt lat="48.99159300386758" lon="2.431762467281254"><ele>69.0</ele><time>2026-03-30T23:36:45.999Z</time></trkpt><trkpt lat="48.991528248866366" lon="2.431659043561662"><ele>69.33333333333333</ele><time>2026-03-30T23:36:46.999Z</time></trkpt><trkpt lat="48.991477379526714" lon="2.431563373414876"><ele>69.66666666666667</ele><time>2026-03-30T23:36:47.999Z</time></trkpt><trkpt lat="48.99143340899726" lon="2.431457707763365"><ele>70.0</ele><time>2026-03-30T23:36:48.999Z</time></trkpt><trkpt lat="48.99142376496052" lon="2.4313190099225253"><ele>70.33333333333334</ele><time>2026-03-30T23:36:49.999Z</time></trkpt><trkpt lat="48.99140702826449" lon="2.4311933593876396"><ele>70.66666666666667</ele><time>2026-03-30T23:36:50.999Z</time></trkpt><trkpt lat="48.9913640902565" lon="2.431104079739597"><ele>71.0</ele><time>2026-03-30T23:36:51.999Z</time></trkpt><trkpt lat="48.991289096637175" lon="2.4310621560409316"><ele>71.0</ele><time>2026-03-30T23:36:52.999Z</time></trkpt><trkpt lat="48.991198098545" lon="2.4310879362911906"><ele>71.0</ele><time>2026-03-30T23:36:53.999Z</time></trkpt><trkpt lat="48.991126052301844" lon="2.431177579653968"><ele>71.0</ele><time>2026-03-30T23:36:54.999Z</time></trkpt><trkpt lat="48.99108065372168" lon="2.43130490906421"><ele>71.0</ele><time>2026-03-30T23:36:55.999Z</time></trkpt><trkpt lat="48.99106216803715" lon="2.4314436738815717"><ele>71.0</ele><time>2026-03-30T23:36:56.999Z</time></trkpt><trkpt lat="48.991044196817626" lon="2.4315859961508464"><ele>71.25</ele><time>2026-03-30T23:36:57.999Z</time></trkpt><trkpt lat="48.99099951383282" lon="2.431720579776762"><ele>71.5</ele><time>2026-03-30T23:36:58.999Z</time></trkpt><trkpt lat="48.990927886752644" lon="2.4318628164905687"><ele>71.75</ele><time>2026-03-30T23:36:59.999Z</time></trkpt><trkpt lat="48.99085455562109" lon="2.431993340172367"><ele>72.0</ele><time>2026-03-30T23:37:00.999Z</time></trkpt><trkpt lat="48.99074826196962" lon="2.432137575920023"><ele>71.25</ele><time>2026-03-30T23:37:01.999Z</time></trkpt><trkpt lat="48.99064891157451" lon="2.4322864771047117"><ele>70.5</ele><time>2026-03-30T23:37:02.999Z</time></trkpt><trkpt lat="48.99056233946007" lon="2.4324360590377845"><ele>69.75</ele><time>2026-03-30T23:37:03.999Z</time></trkpt><trkpt lat="48.990476428295665" lon="2.432587385177468"><ele>69.0</ele><time>2026-03-30T23:37:04.999Z</time></trkpt><trkpt lat="48.99037355598614" lon="2.4327216688406046"><ele>69.0</ele><time>2026-03-30T23:37:05.999Z</time></trkpt><trkpt lat="48.990282597710646" lon="2.4328695050026625"><ele>69.0</ele><time>2026-03-30T23:37:06.999Z</time></trkpt><trkpt lat="48.99019058080343" lon="2.4330194784430987"><ele>69.0</ele><time>2026-03-30T23:37:07.999Z</time></trkpt><trkpt lat="48.99010638849953" lon="2.433174006602702"><ele>69.0</ele><time>2026-03-30T23:37:08.999Z</time></trkpt><trkpt lat="48.99002157818563" lon="2.4333066075242913"><ele>68.25</ele><time>2026-03-30T23:37:09.999Z</time></trkpt><trkpt lat="48.989934820758535" lon="2.4334524577061645"><ele>67.5</ele><time>2026-03-30T23:37:10.999Z</time></trkpt><trkpt lat="48.989845325524506" lon="2.43360339711841"><ele>66.75</ele><time>2026-03-30T23:37:11.999Z</time></trkpt><trkpt lat="48.98975130589281" lon="2.4337531182851606"><ele>66.0</ele><time>2026-03-30T23:37:12.999Z</time></trkpt><trkpt lat="48.98965160020983" lon="2.433918392537897"><ele>65.75</ele><time>2026-03-30T23:37:13.999Z</time></trkpt><trkpt lat="48.98955440100794" lon="2.434082516648276"><ele>65.5</ele><time>2026-03-30T23:37:14.999Z</time></trkpt><trkpt lat="48.989442759976974" lon="2.4342386871152963"><ele>65.25</ele><time>2026-03-30T23:37:15.999Z</time></trkpt><trkpt lat="48.98934569285534" lon="2.4344020249883327"><ele>65.0</ele><time>2026-03-30T23:37:16.999Z</time></trkpt><trkpt lat="48.98926191101416" lon="2.4345635807103214"><ele>64.75</ele><time>2026-03-30T23:37:17.999Z</time></trkpt><trkpt lat="48.98916053893386" lon="2.434710469624774"><ele>64.5</ele><time>2026-03-30T23:37:18.999Z</time></trkpt><trkpt lat="48.989062076298836" lon="2.434856013674073"><ele>64.25</ele><time>2026-03-30T23:37:19.999Z</time></trkpt><trkpt lat="48.98896867126591" lon="2.4350179347055563"><ele>64.0</ele><time>2026-03-30T23:37:20.999Z</time></trkpt><trkpt lat="48.98887278654476" lon="2.435173447995489"><ele>64.0</ele><time>2026-03-30T23:37:21.999Z</time></trkpt><trkpt lat="48.98877749487512" lon="2.4353333768216303"><ele>64.0</ele><time>2026-03-30T23:37:22.999Z</time></trkpt><trkpt lat="48.988667677948975" lon="2.4354505194227727"><ele>64.0</ele><time>2026-03-30T23:37:23.999Z</time></trkpt><trkpt lat="48.988562133166816" lon="2.4355746239830878"><ele>64.0</ele><time>2026-03-30T23:37:24.999Z</time></trkpt><trkpt lat="48.988457526785936" lon="2.4357035226202512"><ele>63.5</ele><time>2026-03-30T23:37:25.999Z</time></trkpt><trkpt lat="48.9883581246382" lon="2.4358199517879866"><ele>63.0</ele><time>2026-03-30T23:37:26.999Z</time></trkpt><trkpt lat="48.98825503450798" lon="2.435944594060536"><ele>62.5</ele><time>2026-03-30T23:37:27.999Z</time></trkpt><trkpt lat="48.98815750985994" lon="2.436063909784383"><ele>62.0</ele><time>2026-03-30T23:37:28.999Z</time></trkpt><trkpt lat="48.9880640599777" lon="2.4361834591424576"><ele>61.2</ele><time>2026-03-30T23:37:29.999Z</time></trkpt><trkpt lat="48.98797469531394" lon="2.4362960434365837"><ele>60.400000000000006</ele><time>2026-03-30T23:37:30.999Z</time></trkpt><trkpt lat="48.98788092535168" lon="2.4363886213234864"><ele>59.599999999999994</ele><time>2026-03-30T23:37:31.999Z</time></trkpt><trkpt lat="48.98781017207465" lon="2.4364733022623914"><ele>58.8</ele><time>2026-03-30T23:37:32.999Z</time></trkpt><trkpt lat="48.987745299769536" lon="2.436551731966743"><ele>58.0</ele><time>2026-03-30T23:37:33.999Z</time></trkpt><trkpt lat="48.98766944206435" lon="2.4366291049297364"><ele>57.599999999999994</ele><time>2026-03-30T23:37:34.999Z</time></trkpt><trkpt lat="48.9875845170656" lon="2.436706812657452"><ele>57.199999999999996</ele><time>2026-03-30T23:37:35.999Z</time></trkpt><trkpt lat="48.98748935625238" lon="2.436771995819753"><ele>56.8</ele><time>2026-03-30T23:37:36.999Z</time></trkpt><trkpt lat="48.987388756240776" lon="2.436825790748298"><ele>56.4</ele><time>2026-03-30T23:37:37.999Z</time></trkpt><trkpt lat="48.987283293814734" lon="2.4368670942733974"><ele>56.0</ele><time>2026-03-30T23:37:38.999Z</time></trkpt><trkpt lat="48.98718169069253" lon="2.436914472269476"><ele>56.0</ele><time>2026-03-30T23:37:39.999Z</time></trkpt><trkpt lat="48.9870807740199" lon="2.4369539937752336"><ele>55.99999999999999</ele><time>2026-03-30T23:37:40.999Z</time></trkpt><trkpt lat="48.98697992264373" lon="2.4369930498705403"><ele>55.99999999999999</ele><time>2026-03-30T23:37:41.999Z</time></trkpt><trkpt lat="48.986881929016675" lon="2.4370294438770674"><ele>56.0</ele><time>2026-03-30T23:37:42.999Z</time></trkpt><trkpt lat="48.98678841641594" lon="2.437068660194435"><ele>56.0</ele><time>2026-03-30T23:37:43.999Z</time></trkpt><trkpt lat="48.986702958086624" lon="2.4371108549187936"><ele>56.333333333333336</ele><time>2026-03-30T23:37:44.999Z</time></trkpt><trkpt lat="48.98662348289529" lon="2.43715308507837"><ele>56.66666666666667</ele><time>2026-03-30T23:37:45.999Z</time></trkpt><trkpt lat="48.986552762009666" lon="2.437194652477653"><ele>57.0</ele><time>2026-03-30T23:37:46.999Z</time></trkpt><trkpt lat="48.98648715347902" lon="2.4372422211861435"><ele>57.33333333333333</ele><time>2026-03-30T23:37:47.999Z</time></trkpt><trkpt lat="48.986429970620705" lon="2.4372874681393313"><ele>57.666666666666664</ele><time>2026-03-30T23:37:48.999Z</time></trkpt><trkpt lat="48.98634305345971" lon="2.437383401724148"><ele>58.0</ele><time>2026-03-30T23:37:50.999Z</time></trkpt><trkpt lat="48.98628211266548" lon="2.4374628589409277"><ele>58.0</ele><time>2026-03-30T23:37:52.999Z</time></trkpt><trkpt lat="48.98623016130517" lon="2.4375245302382926"><ele>58.0</ele><time>2026-03-30T23:37:55.999Z</time></trkpt><trkpt lat="48.98613875864485" lon="2.437611106787201"><ele>58.0</ele><time>2026-03-30T23:38:14Z</time></trkpt><trkpt lat="48.98604411363861" lon="2.4377177136611214"><ele>58.0</ele><time>2026-03-30T23:38:16Z</time></trkpt><trkpt lat="48.985994529816814" lon="2.4378118455481874"><ele>58.0</ele><time>2026-03-30T23:38:17Z</time></trkpt><trkpt lat="48.985930898903696" lon="2.437893775409127"><ele>57.83333333333333</ele><time>2026-03-30T23:38:18Z</time></trkpt><trkpt lat="48.9858717860884" lon="2.4379865956169957"><ele>57.666666666666664</ele><time>2026-03-30T23:38:19Z</time></trkpt><trkpt lat="48.985810299197674" lon="2.438088433321753"><ele>57.5</ele><time>2026-03-30T23:38:20Z</time></trkpt><trkpt lat="48.98574741125662" lon="2.438189161631221"><ele>57.33333333333333</ele><time>2026-03-30T23:38:21Z</time></trkpt><trkpt lat="48.98568470502797" lon="2.438289199931088"><ele>57.166666666666664</ele><time>2026-03-30T23:38:22Z</time></trkpt><trkpt lat="48.9856199865174" lon="2.438380646650825"><ele>57.0</ele><time>2026-03-30T23:38:23Z</time></trkpt><trkpt lat="48.985556088292526" lon="2.4384670653171097"><ele>57.0</ele><time>2026-03-30T23:38:24Z</time></trkpt><trkpt lat="48.98549598196658" lon="2.4385589614417826"><ele>57.0</ele><time>2026-03-30T23:38:25Z</time></trkpt><trkpt lat="48.98543644722434" lon="2.4386512073619255"><ele>57.0</ele><time>2026-03-30T23:38:26Z</time></trkpt><trkpt lat="48.98537849828407" lon="2.438740137146749"><ele>57.0</ele><time>2026-03-30T23:38:27Z</time></trkpt><trkpt lat="48.985320532930984" lon="2.4388281954215425"><ele>57.0</ele><time>2026-03-30T23:38:28Z</time></trkpt><trkpt lat="48.985260660202066" lon="2.4389161273283073"><ele>57.0</ele><time>2026-03-30T23:38:29Z</time></trkpt><trkpt lat="48.98520115364024" lon="2.439007274911331"><ele>57.166666666666664</ele><time>2026-03-30T23:38:30Z</time></trkpt><trkpt lat="48.98514453455371" lon="2.439098265489476"><ele>57.33333333333333</ele><time>2026-03-30T23:38:31Z</time></trkpt><trkpt lat="48.98508795972407" lon="2.4391857511644073"><ele>57.5</ele><time>2026-03-30T23:38:32Z</time></trkpt><trkpt lat="48.985028300604924" lon="2.4392733206786468"><ele>57.666666666666664</ele><time>2026-03-30T23:38:33Z</time></trkpt><trkpt lat="48.98496765789033" lon="2.4393589702776297"><ele>57.83333333333333</ele><time>2026-03-30T23:38:34Z</time></trkpt><trkpt lat="48.984906727703326" lon="2.4394449073491997"><ele>58.0</ele><time>2026-03-30T23:38:35Z</time></trkpt><trkpt lat="48.98484750120243" lon="2.439534634395194"><ele>56.99999999999999</ele><time>2026-03-30T23:38:36Z</time></trkpt><trkpt lat="48.98478990743093" lon="2.439620090255838"><ele>56.0</ele><time>2026-03-30T23:38:37Z</time></trkpt><trkpt lat="48.98473765545184" lon="2.439708863990877"><ele>55.0</ele><time>2026-03-30T23:38:38Z</time></trkpt><trkpt lat="48.98468923966711" lon="2.439789329348733"><ele>54.0</ele><time>2026-03-30T23:38:39Z</time></trkpt><trkpt lat="48.98460829290765" lon="2.439924194644113"><ele>52.99999999999999</ele><time>2026-03-30T23:38:41Z</time></trkpt><trkpt lat="48.98453641618464" lon="2.4400269882477903"><ele>52.0</ele><time>2026-03-30T23:38:43Z</time></trkpt><trkpt lat="48.9844436243215" lon="2.4401480793424555"><ele>52.0</ele><time>2026-03-30T23:38:45Z</time></trkpt><trkpt lat="48.98437891355709" lon="2.440231064926614"><ele>52.0</ele><time>2026-03-30T23:38:46Z</time></trkpt><trkpt lat="48.98429308687195" lon="2.4403215088276933"><ele>52.0</ele><time>2026-03-30T23:38:47Z</time></trkpt><trkpt lat="48.984187886694855" lon="2.440430622277811"><ele>52.0</ele><time>2026-03-30T23:38:48Z</time></trkpt><trkpt lat="48.984064582021816" lon="2.4405288206935287"><ele>50.75</ele><time>2026-03-30T23:38:49Z</time></trkpt><trkpt lat="48.983935306444444" lon="2.4406211822136608"><ele>49.5</ele><time>2026-03-30T23:38:50Z</time></trkpt><trkpt lat="48.983816770710824" lon="2.440718944503723"><ele>48.25</ele><time>2026-03-30T23:38:51Z</time></trkpt><trkpt lat="48.98369500234381" lon="2.440815500958603"><ele>47.0</ele><time>2026-03-30T23:38:52Z</time></trkpt><trkpt lat="48.98357714647923" lon="2.4409142601535954"><ele>47.0</ele><time>2026-03-30T23:38:53Z</time></trkpt><trkpt lat="48.98345747443355" lon="2.4410102238879867"><ele>47.0</ele><time>2026-03-30T23:38:54Z</time></trkpt><trkpt lat="48.983337792379714" lon="2.441112727160692"><ele>47.0</ele><time>2026-03-30T23:38:55Z</time></trkpt><trkpt lat="48.983224817252896" lon="2.4412252377309005"><ele>47.0</ele><time>2026-03-30T23:38:56Z</time></trkpt><trkpt lat="48.98311637250063" lon="2.441338698049564"><ele>46.5</ele><time>2026-03-30T23:38:57Z</time></trkpt><trkpt lat="48.983013989851585" lon="2.4414550940925546"><ele>46.0</ele><time>2026-03-30T23:38:58Z</time></trkpt><trkpt lat="48.98291067157175" lon="2.441574101182378"><ele>45.5</ele><time>2026-03-30T23:38:59Z</time></trkpt><trkpt lat="48.98280831306208" lon="2.4417007825638155"><ele>45.0</ele><time>2026-03-30T23:38:59.999Z</time></trkpt><trkpt lat="48.98270821979193" lon="2.4418293318741595"><ele>45.0</ele><time>2026-03-30T23:39:00.999Z</time></trkpt><trkpt lat="48.982612591143344" lon="2.4419639889000706"><ele>45.0</ele><time>2026-03-30T23:39:01.999Z</time></trkpt><trkpt lat="48.98251662917993" lon="2.442100629691336"><ele>45.0</ele><time>2026-03-30T23:39:02.999Z</time></trkpt><trkpt lat="48.98242380739112" lon="2.4422435808323706"><ele>45.0</ele><time>2026-03-30T23:39:03.999Z</time></trkpt><trkpt lat="48.98232974171222" lon="2.442385440889004"><ele>45.75</ele><time>2026-03-30T23:39:04.999Z</time></trkpt><trkpt lat="48.98224765863936" lon="2.442541725470512"><ele>46.5</ele><time>2026-03-30T23:39:05.999Z</time></trkpt><trkpt lat="48.982163801743965" lon="2.4426999678917234"><ele>47.25</ele><time>2026-03-30T23:39:06.999Z</time></trkpt><trkpt lat="48.98208397555439" lon="2.4428647828034804"><ele>48.0</ele><time>2026-03-30T23:39:07.999Z</time></trkpt><trkpt lat="48.9820034781997" lon="2.4430076608669755"><ele>48.0</ele><time>2026-03-30T23:39:08.999Z</time></trkpt><trkpt lat="48.98193814798678" lon="2.443129927366486"><ele>48.0</ele><time>2026-03-30T23:39:09.999Z</time></trkpt><trkpt lat="48.981871117591886" lon="2.4432429399839295"><ele>48.0</ele><time>2026-03-30T23:39:10.999Z</time></trkpt><trkpt lat="48.98179667339058" lon="2.443336524505592"><ele>48.0</ele><time>2026-03-30T23:39:11.999Z</time></trkpt><trkpt lat="48.981712629045916" lon="2.4433985726641274"><ele>48.0</ele><time>2026-03-30T23:39:12.999Z</time></trkpt><trkpt lat="48.98163599688466" lon="2.443461686838537"><ele>48.0</ele><time>2026-03-30T23:39:13.999Z</time></trkpt><trkpt lat="48.98157658279525" lon="2.4435565172475497"><ele>48.0</ele><time>2026-03-30T23:39:14.999Z</time></trkpt><trkpt lat="48.98154477053204" lon="2.443675784575033"><ele>48.0</ele><time>2026-03-30T23:39:15.999Z</time></trkpt><trkpt lat="48.9815376686679" lon="2.443811029115498"><ele>48.0</ele><time>2026-03-30T23:39:16.999Z</time></trkpt><trkpt lat="48.981563902507524" lon="2.4439424107247887"><ele>48.0</ele><time>2026-03-30T23:39:17.999Z</time></trkpt><trkpt lat="48.98154036709811" lon="2.4440997704424143"><ele>48.0</ele><time>2026-03-30T23:39:18.999Z</time></trkpt><trkpt lat="48.98151167816693" lon="2.4442484833536477"><ele>48.0</ele><time>2026-03-30T23:39:19.999Z</time></trkpt><trkpt lat="48.98146896018113" lon="2.44440590773889"><ele>48.0</ele><time>2026-03-30T23:39:20.999Z</time></trkpt><trkpt lat="48.98141859103395" lon="2.44458410388235"><ele>48.0</ele><time>2026-03-30T23:39:21.999Z</time></trkpt><trkpt lat="48.981360352616846" lon="2.4447740215679468"><ele>48.25</ele><time>2026-03-30T23:39:22.999Z</time></trkpt><trkpt lat="48.98130353686861" lon="2.4449751530534813"><ele>48.5</ele><time>2026-03-30T23:39:23.999Z</time></trkpt><trkpt lat="48.98124891126165" lon="2.4451834481619454"><ele>48.75</ele><time>2026-03-30T23:39:24.999Z</time></trkpt><trkpt lat="48.98119550467638" lon="2.4453857826924605"><ele>49.0</ele><time>2026-03-30T23:39:25.999Z</time></trkpt><trkpt lat="48.98113848863103" lon="2.445585014270229"><ele>49.25</ele><time>2026-03-30T23:39:26.999Z</time></trkpt><trkpt lat="48.98108154681567" lon="2.4457852224889627"><ele>49.5</ele><time>2026-03-30T23:39:27.999Z</time></trkpt><trkpt lat="48.981023860087596" lon="2.4459869278495914"><ele>49.75</ele><time>2026-03-30T23:39:28.999Z</time></trkpt><trkpt lat="48.98096756647676" lon="2.4461872166270213"><ele>50.0</ele><time>2026-03-30T23:39:29.999Z</time></trkpt><trkpt lat="48.98090750306836" lon="2.4463835345319325"><ele>50.0</ele><time>2026-03-30T23:39:30.999Z</time></trkpt><trkpt lat="48.98084930521978" lon="2.446578414804391"><ele>50.0</ele><time>2026-03-30T23:39:31.999Z</time></trkpt><trkpt lat="48.980793788682234" lon="2.446773059571077"><ele>50.0</ele><time>2026-03-30T23:39:32.999Z</time></trkpt><trkpt lat="48.98073982889945" lon="2.4469714411707835"><ele>50.0</ele><time>2026-03-30T23:39:33.999Z</time></trkpt><trkpt lat="48.98068436646629" lon="2.4471691375793627"><ele>50.75</ele><time>2026-03-30T23:39:34.999Z</time></trkpt><trkpt lat="48.980626580357054" lon="2.4473621895129134"><ele>51.5</ele><time>2026-03-30T23:39:35.999Z</time></trkpt><trkpt lat="48.98056665714345" lon="2.4475711585688833"><ele>52.25</ele><time>2026-03-30T23:39:36.999Z</time></trkpt><trkpt lat="48.98050498223577" lon="2.4477838255701636"><ele>53.0</ele><time>2026-03-30T23:39:37.999Z</time></trkpt><trkpt lat="48.98044622353831" lon="2.4479906148504513"><ele>53.66666666666667</ele><time>2026-03-30T23:39:38.999Z</time></trkpt><trkpt lat="48.980386555754535" lon="2.4482001131495137"><ele>54.33333333333333</ele><time>2026-03-30T23:39:39.999Z</time></trkpt><trkpt lat="48.98032961307202" lon="2.448415331270854"><ele>55.0</ele><time>2026-03-30T23:39:40.999Z</time></trkpt><trkpt lat="48.980272534335555" lon="2.4486305027676254"><ele>55.0</ele><time>2026-03-30T23:39:41.999Z</time></trkpt><trkpt lat="48.9802151947943" lon="2.448846568909153"><ele>55.0</ele><time>2026-03-30T23:39:42.999Z</time></trkpt><trkpt lat="48.98015623418031" lon="2.4490644418240204"><ele>55.0</ele><time>2026-03-30T23:39:43.999Z</time></trkpt><trkpt lat="48.980096869643354" lon="2.449277114217159"><ele>55.0</ele><time>2026-03-30T23:39:44.999Z</time></trkpt><trkpt lat="48.980035434579" lon="2.449487773951938"><ele>55.0</ele><time>2026-03-30T23:39:45.999Z</time></trkpt><trkpt lat="48.9799746723686" lon="2.4496981494185643"><ele>55.0</ele><time>2026-03-30T23:39:46.999Z</time></trkpt><trkpt lat="48.97991831268558" lon="2.4499107330965826"><ele>56.0</ele><time>2026-03-30T23:39:47.999Z</time></trkpt><trkpt lat="48.97986200231411" lon="2.45012784648347"><ele>57.0</ele><time>2026-03-30T23:39:48.999Z</time></trkpt><trkpt lat="48.97980190007773" lon="2.4503430433937345"><ele>58.0</ele><time>2026-03-30T23:39:49.999Z</time></trkpt><trkpt lat="48.97973808606793" lon="2.450553988310418"><ele>58.0</ele><time>2026-03-30T23:39:50.999Z</time></trkpt><trkpt lat="48.979681236949624" lon="2.450763920912402"><ele>58.0</ele><time>2026-03-30T23:39:51.999Z</time></trkpt><trkpt lat="48.97962340792978" lon="2.4509734374491705"><ele>58.0</ele><time>2026-03-30T23:39:52.999Z</time></trkpt><trkpt lat="48.97956403597658" lon="2.4511799072896454"><ele>58.0</ele><time>2026-03-30T23:39:53.999Z</time></trkpt><trkpt lat="48.97950019722363" lon="2.4513740629284944"><ele>58.0</ele><time>2026-03-30T23:39:54.999Z</time></trkpt><trkpt lat="48.97944285331138" lon="2.451554238330355"><ele>58.0</ele><time>2026-03-30T23:39:55.999Z</time></trkpt><trkpt lat="48.97938571399614" lon="2.4517252785906978"><ele>58.0</ele><time>2026-03-30T23:39:56.999Z</time></trkpt><trkpt lat="48.979326111413556" lon="2.4518768556720527"><ele>58.0</ele><time>2026-03-30T23:39:57.999Z</time></trkpt><trkpt lat="48.97926173208899" lon="2.4519853265469904"><ele>57.99999999999999</ele><time>2026-03-30T23:39:58.999Z</time></trkpt><trkpt lat="48.97919533331395" lon="2.4520587838929644"><ele>58.0</ele><time>2026-03-30T23:39:59.999Z</time></trkpt><trkpt lat="48.97912833720148" lon="2.4520981369590307"><ele>58.0</ele><time>2026-03-30T23:40:00.999Z</time></trkpt><trkpt lat="48.97905459551642" lon="2.4521072235771344"><ele>58.0</ele><time>2026-03-30T23:40:01.999Z</time></trkpt><trkpt lat="48.978975469719664" lon="2.452128725506354"><ele>57.99999999999999</ele><time>2026-03-30T23:40:02.999Z</time></trkpt><trkpt lat="48.97889509565419" lon="2.452178859285638"><ele>58.0</ele><time>2026-03-30T23:40:03.999Z</time></trkpt><trkpt lat="48.97880495782296" lon="2.4522255979851795"><ele>58.0</ele><time>2026-03-30T23:40:04.999Z</time></trkpt><trkpt lat="48.9787051292587" lon="2.452243718181706"><ele>58.0</ele><time>2026-03-30T23:40:05.999Z</time></trkpt><trkpt lat="48.97860076410174" lon="2.452248570731243"><ele>58.0</ele><time>2026-03-30T23:40:06.998Z</time></trkpt><trkpt lat="48.978482279091196" lon="2.4522551742818672"><ele>58.0</ele><time>2026-03-30T23:40:07.998Z</time></trkpt><trkpt lat="48.9783624928521" lon="2.45228158105904"><ele>58.0</ele><time>2026-03-30T23:40:08.998Z</time></trkpt><trkpt lat="48.978243612333806" lon="2.452332519353521"><ele>58.0</ele><time>2026-03-30T23:40:09.998Z</time></trkpt><trkpt lat="48.97812446192888" lon="2.452396359316919"><ele>58.0</ele><time>2026-03-30T23:40:11Z</time></trkpt><trkpt lat="48.97801181579397" lon="2.452484397467473"><ele>58.0</ele><time>2026-03-30T23:40:12Z</time></trkpt><trkpt lat="48.977902877042084" lon="2.4525954861488906"><ele>58.0</ele><time>2026-03-30T23:40:13Z</time></trkpt><trkpt lat="48.97780492921363" lon="2.4527215658201085"><ele>58.0</ele><time>2026-03-30T23:40:14Z</time></trkpt><trkpt lat="48.97771825506647" lon="2.452865378076118"><ele>58.0</ele><time>2026-03-30T23:40:15Z</time></trkpt><trkpt lat="48.97764413145759" lon="2.453024172708254"><ele>58.0</ele><time>2026-03-30T23:40:16Z</time></trkpt><trkpt lat="48.977581822493484" lon="2.4531965663664783"><ele>58.0</ele><time>2026-03-30T23:40:17Z</time></trkpt><trkpt lat="48.97753363745748" lon="2.4533799433733328"><ele>58.0</ele><time>2026-03-30T23:40:18Z</time></trkpt><trkpt lat="48.9774965067479" lon="2.4535708925027593"><ele>58.0</ele><time>2026-03-30T23:40:19Z</time></trkpt><trkpt lat="48.977474918256796" lon="2.453768594731816"><ele>58.0</ele><time>2026-03-30T23:40:20Z</time></trkpt><trkpt lat="48.977470303105484" lon="2.453969845745631"><ele>58.0</ele><time>2026-03-30T23:40:21Z</time></trkpt><trkpt lat="48.97747896790891" lon="2.4541707698214372"><ele>58.25</ele><time>2026-03-30T23:40:22Z</time></trkpt><trkpt lat="48.97749818538063" lon="2.4543684063475717"><ele>58.5</ele><time>2026-03-30T23:40:23Z</time></trkpt><trkpt lat="48.97752317775543" lon="2.4545615681722643"><ele>58.75</ele><time>2026-03-30T23:40:24Z</time></trkpt><trkpt lat="48.977545494607256" lon="2.454750547743387"><ele>59.0</ele><time>2026-03-30T23:40:25Z</time></trkpt><trkpt lat="48.97755950558427" lon="2.454941616793839"><ele>59.25</ele><time>2026-03-30T23:40:26Z</time></trkpt><trkpt lat="48.97757672914686" lon="2.455133811259058"><ele>59.5</ele><time>2026-03-30T23:40:27Z</time></trkpt><trkpt lat="48.97759788205505" lon="2.4553237616697894"><ele>59.75</ele><time>2026-03-30T23:40:28Z</time></trkpt><trkpt lat="48.97761683560066" lon="2.4555047468230713"><ele>60.0</ele><time>2026-03-30T23:40:29Z</time></trkpt><trkpt lat="48.977625791454706" lon="2.455675211351955"><ele>60.333333333333336</ele><time>2026-03-30T23:40:30Z</time></trkpt><trkpt lat="48.977619721576424" lon="2.455835835778803"><ele>60.66666666666667</ele><time>2026-03-30T23:40:31Z</time></trkpt><trkpt lat="48.977603937465254" lon="2.455987327787313"><ele>61.0</ele><time>2026-03-30T23:40:32Z</time></trkpt><trkpt lat="48.97758078092772" lon="2.456117540859273"><ele>61.333333333333336</ele><time>2026-03-30T23:40:33Z</time></trkpt><trkpt lat="48.97755271303162" lon="2.45622501732637"><ele>61.66666666666667</ele><time>2026-03-30T23:40:34Z</time></trkpt><trkpt lat="48.97751216609428" lon="2.4563160003221447"><ele>62.0</ele><time>2026-03-30T23:40:35Z</time></trkpt><trkpt lat="48.97745043343754" lon="2.4563879048207147"><ele>62.2</ele><time>2026-03-30T23:40:36Z</time></trkpt><trkpt lat="48.97737595600961" lon="2.4564495776730886"><ele>62.400000000000006</ele><time>2026-03-30T23:40:37Z</time></trkpt><trkpt lat="48.97728260819079" lon="2.4564689856200217"><ele>62.599999999999994</ele><time>2026-03-30T23:40:38Z</time></trkpt><trkpt lat="48.97720021770403" lon="2.4565573907583236"><ele>62.8</ele><time>2026-03-30T23:40:39Z</time></trkpt><trkpt lat="48.97714210688771" lon="2.4566999829233156"><ele>63.0</ele><time>2026-03-30T23:40:40Z</time></trkpt><trkpt lat="48.97712135510863" lon="2.4568533758353164"><ele>63.0</ele><time>2026-03-30T23:40:41Z</time></trkpt><trkpt lat="48.977065341606256" lon="2.456986619728922"><ele>63.0</ele><time>2026-03-30T23:40:42Z</time></trkpt><trkpt lat="48.97699562954415" lon="2.4571038332504216"><ele>63.0</ele><time>2026-03-30T23:40:43Z</time></trkpt><trkpt lat="48.97691179925334" lon="2.457204484688654"><ele>63.0</ele><time>2026-03-30T23:40:44Z</time></trkpt><trkpt lat="48.97683012022917" lon="2.457328436388875"><ele>63.0</ele><time>2026-03-30T23:40:45Z</time></trkpt><trkpt lat="48.97675666040296" lon="2.45746434394432"><ele>62.75</ele><time>2026-03-30T23:40:46Z</time></trkpt><trkpt lat="48.976676075558615" lon="2.457623519316492"><ele>62.5</ele><time>2026-03-30T23:40:47Z</time></trkpt><trkpt lat="48.97659601023037" lon="2.457774367683645"><ele>62.25</ele><time>2026-03-30T23:40:48Z</time></trkpt><trkpt lat="48.97651214056922" lon="2.457917363613736"><ele>62.0</ele><time>2026-03-30T23:40:49Z</time></trkpt><trkpt lat="48.97643283393637" lon="2.4580465660541404"><ele>62.0</ele><time>2026-03-30T23:40:50Z</time></trkpt><trkpt lat="48.976349290635184" lon="2.458164874708277"><ele>62.0</ele><time>2026-03-30T23:40:51Z</time></trkpt><trkpt lat="48.976251714281155" lon="2.4582858874289397"><ele>62.0</ele><time>2026-03-30T23:40:52Z</time></trkpt><trkpt lat="48.97616568974842" lon="2.4583856669096984"><ele>62.0</ele><time>2026-03-30T23:40:53Z</time></trkpt><trkpt lat="48.97606423782349" lon="2.4585029291026936"><ele>62.0</ele><time>2026-03-30T23:40:54Z</time></trkpt><trkpt lat="48.9759544258953" lon="2.4586282885008113"><ele>62.0</ele><time>2026-03-30T23:40:55Z</time></trkpt><trkpt lat="48.9758304458894" lon="2.458763645387586"><ele>62.0</ele><time>2026-03-30T23:40:56Z</time></trkpt><trkpt lat="48.975697799346904" lon="2.4589049860702192"><ele>62.0</ele><time>2026-03-30T23:40:57Z</time></trkpt><trkpt lat="48.975559106537254" lon="2.459054677605129"><ele>62.0</ele><time>2026-03-30T23:40:58Z</time></trkpt><trkpt lat="48.97542038951252" lon="2.459206632825086"><ele>62.0</ele><time>2026-03-30T23:40:59Z</time></trkpt><trkpt lat="48.97528661194954" lon="2.459356565502462"><ele>62.0</ele><time>2026-03-30T23:41:00Z</time></trkpt><trkpt lat="48.97515152933885" lon="2.459509809136894"><ele>62.0</ele><time>2026-03-30T23:41:01Z</time></trkpt><trkpt lat="48.975017872196126" lon="2.459656673288189"><ele>62.0</ele><time>2026-03-30T23:41:01.999Z</time></trkpt><trkpt lat="48.97488805885141" lon="2.4598007224784433"><ele>61.75</ele><time>2026-03-30T23:41:02.999Z</time></trkpt><trkpt lat="48.97476376872719" lon="2.4599384605988166"><ele>61.5</ele><time>2026-03-30T23:41:03.999Z</time></trkpt><trkpt lat="48.97464026076157" lon="2.4600731994361054"><ele>61.25</ele><time>2026-03-30T23:41:04.999Z</time></trkpt><trkpt lat="48.97453129308042" lon="2.460193077899244"><ele>61.0</ele><time>2026-03-30T23:41:05.999Z</time></trkpt><trkpt lat="48.974435301302904" lon="2.4603032284061164"><ele>60.99999999999999</ele><time>2026-03-30T23:41:06.999Z</time></trkpt><trkpt lat="48.97435144992286" lon="2.46039387297281"><ele>61.0</ele><time>2026-03-30T23:41:07.999Z</time></trkpt><trkpt lat="48.97427345412931" lon="2.460439077868537"><ele>61.0</ele><time>2026-03-30T23:41:08.999Z</time></trkpt><trkpt lat="48.97421105871192" lon="2.46049991121567"><ele>61.0</ele><time>2026-03-30T23:41:09.999Z</time></trkpt><trkpt lat="48.974123834489106" lon="2.4605741695344117"><ele>60.99999999999999</ele><time>2026-03-30T23:41:11.999Z</time></trkpt><trkpt lat="48.974109725373594" lon="2.4606706603447077"><ele>61.0</ele><time>2026-03-30T23:42:03.998Z</time></trkpt><trkpt lat="48.97401735755081" lon="2.46066816664125"><ele>60.75</ele><time>2026-03-30T23:42:05.998Z</time></trkpt><trkpt lat="48.97392083585506" lon="2.460752599113982"><ele>60.5</ele><time>2026-03-30T23:42:07.998Z</time></trkpt><trkpt lat="48.97381857624857" lon="2.460830556998048"><ele>60.25</ele><time>2026-03-30T23:42:09.998Z</time></trkpt><trkpt lat="48.97387343451159" lon="2.4611296619472705"><ele>60.0</ele><time>2026-03-30T23:42:12.998Z</time></trkpt><trkpt lat="48.97394100516408" lon="2.4611926952098013"><ele>60.0</ele><time>2026-03-30T23:42:13.998Z</time></trkpt><trkpt lat="48.97402004354874" lon="2.4612524146118573"><ele>60.0</ele><time>2026-03-30T23:42:14.998Z</time></trkpt><trkpt lat="48.974112728844865" lon="2.461322288921117"><ele>60.0</ele><time>2026-03-30T23:42:15.998Z</time></trkpt><trkpt lat="48.97420678271484" lon="2.46139903832713"><ele>60.0</ele><time>2026-03-30T23:42:17Z</time></trkpt><trkpt lat="48.97431740063987" lon="2.4614988866216496"><ele>60.0</ele><time>2026-03-30T23:42:18Z</time></trkpt><trkpt lat="48.9744362380389" lon="2.4616041328716975"><ele>60.66666666666667</ele><time>2026-03-30T23:42:19Z</time></trkpt><trkpt lat="48.97456951638629" lon="2.461726900631404"><ele>61.333333333333336</ele><time>2026-03-30T23:42:20Z</time></trkpt><trkpt lat="48.97472231497579" lon="2.4618600244687023"><ele>62.0</ele><time>2026-03-30T23:42:21Z</time></trkpt><trkpt lat="48.974876855254166" lon="2.4619835028400634"><ele>62.333333333333336</ele><time>2026-03-30T23:42:22Z</time></trkpt><trkpt lat="48.9750429369425" lon="2.462115521348967"><ele>62.66666666666667</ele><time>2026-03-30T23:42:23Z</time></trkpt><trkpt lat="48.97521962278805" lon="2.4622521341303583"><ele>63.0</ele><time>2026-03-30T23:42:24Z</time></trkpt><trkpt lat="48.975397502766256" lon="2.462394443736599"><ele>63.0</ele><time>2026-03-30T23:42:25Z</time></trkpt><trkpt lat="48.97558225742883" lon="2.462544862057934"><ele>63.0</ele><time>2026-03-30T23:42:26Z</time></trkpt><trkpt lat="48.975767653922745" lon="2.4626908251771558"><ele>63.0</ele><time>2026-03-30T23:42:27Z</time></trkpt><trkpt lat="48.975959512134175" lon="2.4628375081251583"><ele>64.33333333333333</ele><time>2026-03-30T23:42:28Z</time></trkpt><trkpt lat="48.97614823346427" lon="2.462985783706617"><ele>65.66666666666666</ele><time>2026-03-30T23:42:29Z</time></trkpt><trkpt lat="48.9763396193254" lon="2.463142255982207"><ele>67.0</ele><time>2026-03-30T23:42:30Z</time></trkpt><trkpt lat="48.97653206442745" lon="2.4633037629705092"><ele>67.0</ele><time>2026-03-30T23:42:31Z</time></trkpt><trkpt lat="48.976727913636104" lon="2.4634702736758096"><ele>67.0</ele><time>2026-03-30T23:42:32Z</time></trkpt><trkpt lat="48.976928807980734" lon="2.4636470789716305"><ele>66.5</ele><time>2026-03-30T23:42:33Z</time></trkpt><trkpt lat="48.9771298727097" lon="2.463825600547539"><ele>66.0</ele><time>2026-03-30T23:42:34Z</time></trkpt><trkpt lat="48.977331031058426" lon="2.4640051576525446"><ele>66.0</ele><time>2026-03-30T23:42:35Z</time></trkpt><trkpt lat="48.977532344835296" lon="2.4641872094989266"><ele>66.0</ele><time>2026-03-30T23:42:36Z</time></trkpt><trkpt lat="48.97773709571215" lon="2.464371377440947"><ele>66.0</ele><time>2026-03-30T23:42:37Z</time></trkpt><trkpt lat="48.97794324320165" lon="2.46455486007044"><ele>66.0</ele><time>2026-03-30T23:42:38Z</time></trkpt><trkpt lat="48.97815265618145" lon="2.464739217715915"><ele>67.5</ele><time>2026-03-30T23:42:39Z</time></trkpt><trkpt lat="48.97836478778541" lon="2.46492475466906"><ele>69.0</ele><time>2026-03-30T23:42:40Z</time></trkpt><trkpt lat="48.97857512143826" lon="2.465110334479679"><ele>69.0</ele><time>2026-03-30T23:42:41Z</time></trkpt><trkpt lat="48.97879035697447" lon="2.465303594333459"><ele>69.0</ele><time>2026-03-30T23:42:42Z</time></trkpt><trkpt lat="48.9790077049308" lon="2.4654974990627383"><ele>68.5</ele><time>2026-03-30T23:42:43Z</time></trkpt><trkpt lat="48.97923039602607" lon="2.465696931343912"><ele>68.0</ele><time>2026-03-30T23:42:44Z</time></trkpt><trkpt lat="48.97945451659146" lon="2.4658979439543796"><ele>68.0</ele><time>2026-03-30T23:42:45Z</time></trkpt><trkpt lat="48.979681656668745" lon="2.4661020696249856"><ele>68.0</ele><time>2026-03-30T23:42:46Z</time></trkpt><trkpt lat="48.979906842680826" lon="2.4663070090684056"><ele>67.5</ele><time>2026-03-30T23:42:47Z</time></trkpt><trkpt lat="48.98013256456971" lon="2.46651055302049"><ele>67.0</ele><time>2026-03-30T23:42:48Z</time></trkpt><trkpt lat="48.980361992684095" lon="2.466714571637801"><ele>67.0</ele><time>2026-03-30T23:42:49Z</time></trkpt><trkpt lat="48.98059016598228" lon="2.466921332886987"><ele>67.0</ele><time>2026-03-30T23:42:50Z</time></trkpt><trkpt lat="48.980821445278785" lon="2.467126578488798"><ele>66.0</ele><time>2026-03-30T23:42:51Z</time></trkpt><trkpt lat="48.98105416095395" lon="2.467327292855833"><ele>65.0</ele><time>2026-03-30T23:42:52Z</time></trkpt><trkpt lat="48.98128787971454" lon="2.467524432911076"><ele>65.0</ele><time>2026-03-30T23:42:53Z</time></trkpt><trkpt lat="48.98152328934901" lon="2.467713758657432"><ele>65.0</ele><time>2026-03-30T23:42:54Z</time></trkpt><trkpt lat="48.98176089912013" lon="2.4678955116062453"><ele>66.0</ele><time>2026-03-30T23:42:55Z</time></trkpt><trkpt lat="48.981994533731175" lon="2.468068449557411"><ele>67.0</ele><time>2026-03-30T23:42:56Z</time></trkpt><trkpt lat="48.982221240655335" lon="2.4682435911293354"><ele>67.0</ele><time>2026-03-30T23:42:57Z</time></trkpt><trkpt lat="48.9824419013985" lon="2.468426532269071"><ele>67.0</ele><time>2026-03-30T23:42:58Z</time></trkpt><trkpt lat="48.9826604032746" lon="2.4686189748269296"><ele>68.0</ele><time>2026-03-30T23:42:59Z</time></trkpt><trkpt lat="48.982881385498935" lon="2.468815834827085"><ele>69.0</ele><time>2026-03-30T23:43:00Z</time></trkpt><trkpt lat="48.983104160751175" lon="2.4690132005111427"><ele>69.0</ele><time>2026-03-30T23:43:01Z</time></trkpt><trkpt lat="48.983325498066684" lon="2.469211878763334"><ele>69.0</ele><time>2026-03-30T23:43:02Z</time></trkpt><trkpt lat="48.98354391945486" lon="2.4694233836875616"><ele>69.5</ele><time>2026-03-30T23:43:03Z</time></trkpt><trkpt lat="48.983763772981035" lon="2.4696380635668533"><ele>70.0</ele><time>2026-03-30T23:43:04Z</time></trkpt><trkpt lat="48.9839858866858" lon="2.46983780216788"><ele>71.5</ele><time>2026-03-30T23:43:04.999Z</time></trkpt><trkpt lat="48.984207243639524" lon="2.47003096841949"><ele>73.0</ele><time>2026-03-30T23:43:05.999Z</time></trkpt><trkpt lat="48.984424140492" lon="2.4702231691657843"><ele>73.0</ele><time>2026-03-30T23:43:06.999Z</time></trkpt><trkpt lat="48.98463735084791" lon="2.470413716005125"><ele>73.0</ele><time>2026-03-30T23:43:07.999Z</time></trkpt><trkpt lat="48.984847416014425" lon="2.4706061074791124"><ele>72.5</ele><time>2026-03-30T23:43:08.999Z</time></trkpt><trkpt lat="48.98505194681346" lon="2.470798861497378"><ele>72.0</ele><time>2026-03-30T23:43:09.999Z</time></trkpt><trkpt lat="48.985257012663304" lon="2.4709935571984905"><ele>72.0</ele><time>2026-03-30T23:43:10.999Z</time></trkpt><trkpt lat="48.98546614321592" lon="2.4711869638753443"><ele>72.0</ele><time>2026-03-30T23:43:11.999Z</time></trkpt><trkpt lat="48.98567193623326" lon="2.4713813494914807"><ele>70.5</ele><time>2026-03-30T23:43:12.999Z</time></trkpt><trkpt lat="48.985882330948904" lon="2.4715695553317056"><ele>69.0</ele><time>2026-03-30T23:43:13.999Z</time></trkpt><trkpt lat="48.98609326849895" lon="2.4717503254414384"><ele>69.0</ele><time>2026-03-30T23:43:14.999Z</time></trkpt><trkpt lat="48.98630764518795" lon="2.4719288231945984"><ele>69.0</ele><time>2026-03-30T23:43:15.999Z</time></trkpt><trkpt lat="48.986518405952296" lon="2.4721191209799662"><ele>70.0</ele><time>2026-03-30T23:43:16.999Z</time></trkpt><trkpt lat="48.98672822267484" lon="2.4723162567777694"><ele>71.0</ele><time>2026-03-30T23:43:17.999Z</time></trkpt><trkpt lat="48.98693697882532" lon="2.4725118780925732"><ele>71.0</ele><time>2026-03-30T23:43:18.999Z</time></trkpt><trkpt lat="48.98714648883033" lon="2.4727051762823424"><ele>71.0</ele><time>2026-03-30T23:43:19.999Z</time></trkpt><trkpt lat="48.98735696109452" lon="2.472892308722069"><ele>73.0</ele><time>2026-03-30T23:43:20.999Z</time></trkpt><trkpt lat="48.98756626036984" lon="2.4730804493857708"><ele>75.0</ele><time>2026-03-30T23:43:21.999Z</time></trkpt><trkpt lat="48.987774236899305" lon="2.4732658322376952"><ele>75.0</ele><time>2026-03-30T23:43:22.999Z</time></trkpt><trkpt lat="48.987981003222274" lon="2.4734509401920772"><ele>75.0</ele><time>2026-03-30T23:43:23.999Z</time></trkpt><trkpt lat="48.98818749141495" lon="2.473635112284436"><ele>77.0</ele><time>2026-03-30T23:43:24.999Z</time></trkpt><trkpt lat="48.988396204166605" lon="2.473817383302538"><ele>79.0</ele><time>2026-03-30T23:43:25.999Z</time></trkpt><trkpt lat="48.98860442171492" lon="2.4740000451070663"><ele>79.0</ele><time>2026-03-30T23:43:26.999Z</time></trkpt><trkpt lat="48.988811569825955" lon="2.47418309062579"><ele>79.0</ele><time>2026-03-30T23:43:27.999Z</time></trkpt><trkpt lat="48.98901878621265" lon="2.4743675090481023"><ele>79.5</ele><time>2026-03-30T23:43:28.999Z</time></trkpt><trkpt lat="48.9892258534712" lon="2.474553442293736"><ele>80.0</ele><time>2026-03-30T23:43:29.999Z</time></trkpt><trkpt lat="48.98943273598877" lon="2.474741261084168"><ele>81.0</ele><time>2026-03-30T23:43:30.999Z</time></trkpt><trkpt lat="48.98964454741226" lon="2.4749301775060504"><ele>82.0</ele><time>2026-03-30T23:43:31.999Z</time></trkpt><trkpt lat="48.989856280191184" lon="2.4751187147387195"><ele>82.0</ele><time>2026-03-30T23:43:32.999Z</time></trkpt><trkpt lat="48.99006469491682" lon="2.4753051544500053"><ele>82.0</ele><time>2026-03-30T23:43:33.999Z</time></trkpt><trkpt lat="48.9902738487613" lon="2.475489373488255"><ele>82.0</ele><time>2026-03-30T23:43:34.999Z</time></trkpt><trkpt lat="48.9904814149455" lon="2.4756747496500173"><ele>82.0</ele><time>2026-03-30T23:43:35.999Z</time></trkpt><trkpt lat="48.9906857641112" lon="2.4758644001607295"><ele>81.5</ele><time>2026-03-30T23:43:36.999Z</time></trkpt><trkpt lat="48.99089062925362" lon="2.4760525830822493"><ele>81.0</ele><time>2026-03-30T23:43:37.999Z</time></trkpt><trkpt lat="48.99109721187168" lon="2.47624045241355"><ele>81.5</ele><time>2026-03-30T23:43:38.999Z</time></trkpt><trkpt lat="48.99130348540154" lon="2.4764282540363407"><ele>82.0</ele><time>2026-03-30T23:43:39.999Z</time></trkpt><trkpt lat="48.99151180605171" lon="2.4766152301789957"><ele>81.0</ele><time>2026-03-30T23:43:40.999Z</time></trkpt><trkpt lat="48.99172147114437" lon="2.476801981008286"><ele>80.0</ele><time>2026-03-30T23:43:41.999Z</time></trkpt><trkpt lat="48.991930992071076" lon="2.4769883486396496"><ele>80.5</ele><time>2026-03-30T23:43:42.999Z</time></trkpt><trkpt lat="48.992140599567236" lon="2.4771790987532576"><ele>81.0</ele><time>2026-03-30T23:43:43.999Z</time></trkpt><trkpt lat="48.9923536769677" lon="2.4773708859225554"><ele>79.5</ele><time>2026-03-30T23:43:44.999Z</time></trkpt><trkpt lat="48.99256742099119" lon="2.477561385252324"><ele>78.0</ele><time>2026-03-30T23:43:45.999Z</time></trkpt><trkpt lat="48.99278189279765" lon="2.4777506179598183"><ele>79.0</ele><time>2026-03-30T23:43:46.999Z</time></trkpt><trkpt lat="48.99299378415316" lon="2.4779380736157397"><ele>80.0</ele><time>2026-03-30T23:43:47.999Z</time></trkpt><trkpt lat="48.993205515653166" lon="2.4781259850974253"><ele>81.0</ele><time>2026-03-30T23:43:48.999Z</time></trkpt><trkpt lat="48.99341715082601" lon="2.478314556542326"><ele>82.0</ele><time>2026-03-30T23:43:49.999Z</time></trkpt><trkpt lat="48.99362957893483" lon="2.478501210699419"><ele>82.0</ele><time>2026-03-30T23:43:50.999Z</time></trkpt><trkpt lat="48.99383848811492" lon="2.4786864885537576"><ele>82.0</ele><time>2026-03-30T23:43:51.999Z</time></trkpt><trkpt lat="48.99404341546103" lon="2.478871275972771"><ele>84.5</ele><time>2026-03-30T23:43:52.999Z</time></trkpt><trkpt lat="48.99424378063019" lon="2.479052959992903"><ele>87.0</ele><time>2026-03-30T23:43:53.999Z</time></trkpt><trkpt lat="48.99444563318018" lon="2.4792349601259165"><ele>87.0</ele><time>2026-03-30T23:43:54.999Z</time></trkpt><trkpt lat="48.99464396475276" lon="2.4794149967742047"><ele>87.0</ele><time>2026-03-30T23:43:55.999Z</time></trkpt><trkpt lat="48.99484055655454" lon="2.479590696276578"><ele>88.0</ele><time>2026-03-30T23:43:56.999Z</time></trkpt><trkpt lat="48.99503521702754" lon="2.4797646382809853"><ele>89.0</ele><time>2026-03-30T23:43:57.999Z</time></trkpt><trkpt lat="48.99523012491372" lon="2.4799349793392698"><ele>89.0</ele><time>2026-03-30T23:43:58.999Z</time></trkpt><trkpt lat="48.99542477727831" lon="2.4801035532344335"><ele>89.0</ele><time>2026-03-30T23:43:59.999Z</time></trkpt><trkpt lat="48.99561977571251" lon="2.480272473230327"><ele>89.0</ele><time>2026-03-30T23:44:00.999Z</time></trkpt><trkpt lat="48.99581333105586" lon="2.4804427484075973"><ele>89.33333333333334</ele><time>2026-03-30T23:44:01.999Z</time></trkpt><trkpt lat="48.9960019481291" lon="2.480612055438149"><ele>89.66666666666667</ele><time>2026-03-30T23:44:02.999Z</time></trkpt><trkpt lat="48.996186723371196" lon="2.4807796507978024"><ele>90.0</ele><time>2026-03-30T23:44:03.998Z</time></trkpt><trkpt lat="48.99636079761973" lon="2.480941597432909"><ele>90.0</ele><time>2026-03-30T23:44:04.998Z</time></trkpt><trkpt lat="48.99653416223574" lon="2.4810977285764113"><ele>90.0</ele><time>2026-03-30T23:44:05.998Z</time></trkpt><trkpt lat="48.99670693468201" lon="2.4812542351622158"><ele>90.0</ele><time>2026-03-30T23:44:06.998Z</time></trkpt><trkpt lat="48.99687588619051" lon="2.4814054130842607"><ele>90.0</ele><time>2026-03-30T23:44:07.998Z</time></trkpt><trkpt lat="48.99704302246863" lon="2.4815549608374736"><ele>90.0</ele><time>2026-03-30T23:44:08.998Z</time></trkpt><trkpt lat="48.99721101192263" lon="2.4817066450945533"><ele>90.0</ele><time>2026-03-30T23:44:09.998Z</time></trkpt><trkpt lat="48.997375186350226" lon="2.481852366962838"><ele>89.0</ele><time>2026-03-30T23:44:10.998Z</time></trkpt><trkpt lat="48.99753358011622" lon="2.481992417661195"><ele>88.0</ele><time>2026-03-30T23:44:11.998Z</time></trkpt><trkpt lat="48.997693641603234" lon="2.482132373063206"><ele>87.0</ele><time>2026-03-30T23:44:12.998Z</time></trkpt><trkpt lat="48.997865344916654" lon="2.4822824042272473"><ele>87.0</ele><time>2026-03-30T23:44:13.998Z</time></trkpt><trkpt lat="48.99804133288402" lon="2.482438078450943"><ele>87.0</ele><time>2026-03-30T23:44:14.998Z</time></trkpt><trkpt lat="48.998224887375514" lon="2.4825990663319444"><ele>87.0</ele><time>2026-03-30T23:44:15.998Z</time></trkpt><trkpt lat="48.998414824130975" lon="2.4827677039966605"><ele>85.33333333333333</ele><time>2026-03-30T23:44:16.998Z</time></trkpt><trkpt lat="48.99860783028992" lon="2.4829405883425197"><ele>83.66666666666666</ele><time>2026-03-30T23:44:17.998Z</time></trkpt><trkpt lat="48.99880166747177" lon="2.483115153080762"><ele>82.0</ele><time>2026-03-30T23:44:18.998Z</time></trkpt><trkpt lat="48.998997862991835" lon="2.48329439307994"><ele>80.0</ele><time>2026-03-30T23:44:19.998Z</time></trkpt><trkpt lat="48.99918941143952" lon="2.4834722602921553"><ele>78.0</ele><time>2026-03-30T23:44:20.998Z</time></trkpt><trkpt lat="48.99937851436724" lon="2.4836499682617386"><ele>76.0</ele><time>2026-03-30T23:44:21.998Z</time></trkpt><trkpt lat="48.99956817443715" lon="2.4838314862788784"><ele>76.0</ele><time>2026-03-30T23:44:23Z</time></trkpt><trkpt lat="48.999757086725985" lon="2.4840170987785055"><ele>76.0</ele><time>2026-03-30T23:44:24Z</time></trkpt><trkpt lat="48.999943063709175" lon="2.4842091054234476"><ele>76.0</ele><time>2026-03-30T23:44:25Z</time></trkpt><trkpt lat="49.00012966657106" lon="2.484407149314342"><ele>76.0</ele><time>2026-03-30T23:44:26Z</time></trkpt><trkpt lat="49.000314806381276" lon="2.484606254585287"><ele>76.0</ele><time>2026-03-30T23:44:27Z</time></trkpt><trkpt lat="49.000498386879514" lon="2.48480859530995"><ele>76.0</ele><time>2026-03-30T23:44:28Z</time></trkpt><trkpt lat="49.00068159702249" lon="2.485016987313028"><ele>76.0</ele><time>2026-03-30T23:44:29Z</time></trkpt><trkpt lat="49.00086446343892" lon="2.4852287538282907"><ele>73.0</ele><time>2026-03-30T23:44:30Z</time></trkpt><trkpt lat="49.001047269775405" lon="2.4854433264692593"><ele>70.0</ele><time>2026-03-30T23:44:31Z</time></trkpt><trkpt lat="49.001228388852184" lon="2.4856554203996497"><ele>70.0</ele><time>2026-03-30T23:44:32Z</time></trkpt><trkpt lat="49.001414834829724" lon="2.4858658913743166"><ele>70.0</ele><time>2026-03-30T23:44:33Z</time></trkpt><trkpt lat="49.00159993855341" lon="2.4860731909670006"><ele>71.0</ele><time>2026-03-30T23:44:34Z</time></trkpt><trkpt lat="49.001781423246356" lon="2.486279319541033"><ele>72.0</ele><time>2026-03-30T23:44:35Z</time></trkpt><trkpt lat="49.001962651921964" lon="2.4864889210695846"><ele>72.0</ele><time>2026-03-30T23:44:36Z</time></trkpt><trkpt lat="49.002143476366165" lon="2.4866967005569798"><ele>72.0</ele><time>2026-03-30T23:44:37Z</time></trkpt><trkpt lat="49.00232244596048" lon="2.4869018131807326"><ele>73.33333333333333</ele><time>2026-03-30T23:44:38Z</time></trkpt><trkpt lat="49.00250254482889" lon="2.4871065852865515"><ele>74.66666666666666</ele><time>2026-03-30T23:44:39Z</time></trkpt><trkpt lat="49.002682033344065" lon="2.487311394845524"><ele>76.0</ele><time>2026-03-30T23:44:40Z</time></trkpt><trkpt lat="49.00286787914447" lon="2.4875111659250333"><ele>76.0</ele><time>2026-03-30T23:44:41Z</time></trkpt><trkpt lat="49.00305704506607" lon="2.487705607771744"><ele>76.0</ele><time>2026-03-30T23:44:42Z</time></trkpt><trkpt lat="49.003253033768964" lon="2.4878936597293824"><ele>78.5</ele><time>2026-03-30T23:44:43Z</time></trkpt><trkpt lat="49.00345498033547" lon="2.4880714638477492"><ele>81.0</ele><time>2026-03-30T23:44:44Z</time></trkpt><trkpt lat="49.00365860564137" lon="2.488244980189734"><ele>81.0</ele><time>2026-03-30T23:44:45Z</time></trkpt><trkpt lat="49.003864296721225" lon="2.4884126393667647"><ele>81.0</ele><time>2026-03-30T23:44:46Z</time></trkpt><trkpt lat="49.004074083703514" lon="2.4885770404084595"><ele>84.0</ele><time>2026-03-30T23:44:47Z</time></trkpt><trkpt lat="49.00428515664374" lon="2.4887301616195208"><ele>87.0</ele><time>2026-03-30T23:44:48Z</time></trkpt><trkpt lat="49.004499897840034" lon="2.488872645937642"><ele>87.0</ele><time>2026-03-30T23:44:49Z</time></trkpt><trkpt lat="49.00471917411179" lon="2.488999551599747"><ele>87.0</ele><time>2026-03-30T23:44:50Z</time></trkpt><trkpt lat="49.004938023698415" lon="2.4891214317573906"><ele>89.0</ele><time>2026-03-30T23:44:51Z</time></trkpt><trkpt lat="49.00515711919991" lon="2.489237836982326"><ele>91.0</ele><time>2026-03-30T23:44:52Z</time></trkpt><trkpt lat="49.00538078035631" lon="2.4893484521045823"><ele>91.0</ele><time>2026-03-30T23:44:53Z</time></trkpt><trkpt lat="49.005604007664935" lon="2.4894501521294954"><ele>91.0</ele><time>2026-03-30T23:44:54Z</time></trkpt><trkpt lat="49.00583100377837" lon="2.4895406764820205"><ele>92.0</ele><time>2026-03-30T23:44:55Z</time></trkpt><trkpt lat="49.006059037946805" lon="2.4896333941355655"><ele>93.0</ele><time>2026-03-30T23:44:56Z</time></trkpt><trkpt lat="49.00628981581738" lon="2.4897283132137167"><ele>93.0</ele><time>2026-03-30T23:44:57Z</time></trkpt><trkpt lat="49.00651910883563" lon="2.489820100816082"><ele>93.0</ele><time>2026-03-30T23:44:58Z</time></trkpt><trkpt lat="49.00675201678216" lon="2.489909581802374"><ele>94.0</ele><time>2026-03-30T23:44:59Z</time></trkpt><trkpt lat="49.00698559280784" lon="2.489996647101641"><ele>95.0</ele><time>2026-03-30T23:45:00Z</time></trkpt><trkpt lat="49.00721963992752" lon="2.490087384495353"><ele>95.0</ele><time>2026-03-30T23:45:01Z</time></trkpt><trkpt lat="49.00745344114506" lon="2.4901821941641162"><ele>95.0</ele><time>2026-03-30T23:45:02Z</time></trkpt><trkpt lat="49.00768930640729" lon="2.4902802055134785"><ele>96.5</ele><time>2026-03-30T23:45:03Z</time></trkpt><trkpt lat="49.007925858194774" lon="2.490374000014929"><ele>98.0</ele><time>2026-03-30T23:45:04Z</time></trkpt><trkpt lat="49.00816345766027" lon="2.4904614785786165"><ele>98.5</ele><time>2026-03-30T23:45:05Z</time></trkpt><trkpt lat="49.008403328980414" lon="2.4905477191189203"><ele>99.0</ele><time>2026-03-30T23:45:06Z</time></trkpt><trkpt lat="49.00864612141374" lon="2.490634756329667"><ele>99.0</ele><time>2026-03-30T23:45:06.999Z</time></trkpt><trkpt lat="49.00889000009899" lon="2.4907256944010765"><ele>99.0</ele><time>2026-03-30T23:45:07.999Z</time></trkpt><trkpt lat="49.00913325528134" lon="2.49081908316945"><ele>100.0</ele><time>2026-03-30T23:45:08.999Z</time></trkpt><trkpt lat="49.009378814526464" lon="2.490915700031485"><ele>101.0</ele><time>2026-03-30T23:45:09.999Z</time></trkpt><trkpt lat="49.00962646654511" lon="2.49101318065114"><ele>101.0</ele><time>2026-03-30T23:45:10.999Z</time></trkpt><trkpt lat="49.009872001947286" lon="2.4911104479835733"><ele>101.0</ele><time>2026-03-30T23:45:11.999Z</time></trkpt><trkpt lat="49.01011619547012" lon="2.491206383931976"><ele>101.5</ele><time>2026-03-30T23:45:12.999Z</time></trkpt><trkpt lat="49.01035883256081" lon="2.491300389417186"><ele>102.0</ele><time>2026-03-30T23:45:13.999Z</time></trkpt><trkpt lat="49.010599110807924" lon="2.4913895715979155"><ele>102.5</ele><time>2026-03-30T23:45:14.999Z</time></trkpt><trkpt lat="49.01083639649229" lon="2.4914751433554394"><ele>103.0</ele><time>2026-03-30T23:45:15.999Z</time></trkpt><trkpt lat="49.011072716927416" lon="2.4915604446946076"><ele>103.0</ele><time>2026-03-30T23:45:16.999Z</time></trkpt><trkpt lat="49.01131208551195" lon="2.491646816997157"><ele>103.0</ele><time>2026-03-30T23:45:17.999Z</time></trkpt><trkpt lat="49.01154764066454" lon="2.491736019161215"><ele>103.5</ele><time>2026-03-30T23:45:18.999Z</time></trkpt><trkpt lat="49.01178208223063" lon="2.4918265905717707"><ele>104.0</ele><time>2026-03-30T23:45:19.999Z</time></trkpt><trkpt lat="49.0120162447236" lon="2.491918241258087"><ele>104.0</ele><time>2026-03-30T23:45:20.999Z</time></trkpt><trkpt lat="49.01224983935046" lon="2.492009125517902"><ele>104.0</ele><time>2026-03-30T23:45:21.999Z</time></trkpt><trkpt lat="49.0124854651076" lon="2.4920997324033243"><ele>104.0</ele><time>2026-03-30T23:45:22.999Z</time></trkpt><trkpt lat="49.012719581391636" lon="2.492192387327683"><ele>104.0</ele><time>2026-03-30T23:45:23.999Z</time></trkpt><trkpt lat="49.012950373520034" lon="2.4922848312099806"><ele>104.0</ele><time>2026-03-30T23:45:24.999Z</time></trkpt><trkpt lat="49.01318051149659" lon="2.4923791431468203"><ele>104.0</ele><time>2026-03-30T23:45:25.999Z</time></trkpt><trkpt lat="49.01341073912583" lon="2.4924721825212774"><ele>104.0</ele><time>2026-03-30T23:45:26.999Z</time></trkpt><trkpt lat="49.01364121573895" lon="2.492563464505294"><ele>104.0</ele><time>2026-03-30T23:45:27.999Z</time></trkpt><trkpt lat="49.01387425234654" lon="2.4926523485572254"><ele>104.0</ele><time>2026-03-30T23:45:28.999Z</time></trkpt><trkpt lat="49.01410655660849" lon="2.4927404093144108"><ele>104.0</ele><time>2026-03-30T23:45:29.999Z</time></trkpt><trkpt lat="49.01433832481376" lon="2.492830282996525"><ele>104.0</ele><time>2026-03-30T23:45:30.999Z</time></trkpt><trkpt lat="49.01457050330736" lon="2.4929203767941774"><ele>104.0</ele><time>2026-03-30T23:45:31.999Z</time></trkpt><trkpt lat="49.01480287536932" lon="2.493010781600394"><ele>104.5</ele><time>2026-03-30T23:45:32.999Z</time></trkpt><trkpt lat="49.015034609247564" lon="2.4931010076406914"><ele>105.0</ele><time>2026-03-30T23:45:33.999Z</time></trkpt><trkpt lat="49.01526743512533" lon="2.493190661379512"><ele>105.0</ele><time>2026-03-30T23:45:34.999Z</time></trkpt><trkpt lat="49.015500131587125" lon="2.493279669494932"><ele>105.0</ele><time>2026-03-30T23:45:35.999Z</time></trkpt><trkpt lat="49.015730607387454" lon="2.4933722014991537"><ele>105.0</ele><time>2026-03-30T23:45:36.999Z</time></trkpt><trkpt lat="49.0159589776473" lon="2.4934726711741306"><ele>105.0</ele><time>2026-03-30T23:45:37.999Z</time></trkpt><trkpt lat="49.01618613710367" lon="2.4935831652173728"><ele>105.0</ele><time>2026-03-30T23:45:38.999Z</time></trkpt><trkpt lat="49.01641065710345" lon="2.493707249548505"><ele>105.0</ele><time>2026-03-30T23:45:39.999Z</time></trkpt><trkpt lat="49.01663530015624" lon="2.4938401039101477"><ele>105.0</ele><time>2026-03-30T23:45:40.999Z</time></trkpt><trkpt lat="49.016858035464146" lon="2.4939797396453547"><ele>105.0</ele><time>2026-03-30T23:45:41.999Z</time></trkpt><trkpt lat="49.01707881164465" lon="2.494121859108578"><ele>105.0</ele><time>2026-03-30T23:45:42.999Z</time></trkpt><trkpt lat="49.017297483347946" lon="2.4942628185588647"><ele>105.0</ele><time>2026-03-30T23:45:43.999Z</time></trkpt><trkpt lat="49.017513364425845" lon="2.494401063660055"><ele>105.5</ele><time>2026-03-30T23:45:44.999Z</time></trkpt><trkpt lat="49.0177292535882" lon="2.4945361635308054"><ele>106.0</ele><time>2026-03-30T23:45:45.999Z</time></trkpt><trkpt lat="49.01794169079232" lon="2.4946693953399595"><ele>106.0</ele><time>2026-03-30T23:45:46.999Z</time></trkpt><trkpt lat="49.01815227122668" lon="2.49480242690276"><ele>106.0</ele><time>2026-03-30T23:45:47.999Z</time></trkpt><trkpt lat="49.01836504750332" lon="2.4949368596720265"><ele>106.0</ele><time>2026-03-30T23:45:48.999Z</time></trkpt><trkpt lat="49.018575331369455" lon="2.4950703534692353"><ele>106.0</ele><time>2026-03-30T23:45:49.999Z</time></trkpt><trkpt lat="49.018785608519416" lon="2.4952064883362484"><ele>106.0</ele><time>2026-03-30T23:45:50.999Z</time></trkpt><trkpt lat="49.018997741312255" lon="2.495342666971934"><ele>106.0</ele><time>2026-03-30T23:45:51.999Z</time></trkpt><trkpt lat="49.01920981658614" lon="2.495479816933474"><ele>105.0</ele><time>2026-03-30T23:45:52.999Z</time></trkpt><trkpt lat="49.01942176184004" lon="2.4956133373071676"><ele>104.0</ele><time>2026-03-30T23:45:53.999Z</time></trkpt><trkpt lat="49.01963407542216" lon="2.495748836094148"><ele>104.0</ele><time>2026-03-30T23:45:54.999Z</time></trkpt><trkpt lat="49.01984539660467" lon="2.4958868262754916"><ele>104.0</ele><time>2026-03-30T23:45:55.999Z</time></trkpt><trkpt lat="49.02005821700555" lon="2.4960229363141657"><ele>104.0</ele><time>2026-03-30T23:45:56.999Z</time></trkpt><trkpt lat="49.02027149150547" lon="2.496159372288085"><ele>104.0</ele><time>2026-03-30T23:45:57.999Z</time></trkpt><trkpt lat="49.020483214755814" lon="2.4962970619115885"><ele>104.5</ele><time>2026-03-30T23:45:58.999Z</time></trkpt><trkpt lat="49.02069652143518" lon="2.496433859759744"><ele>105.0</ele><time>2026-03-30T23:45:59.999Z</time></trkpt><trkpt lat="49.02090927947366" lon="2.496570598806669"><ele>105.0</ele><time>2026-03-30T23:46:00.999Z</time></trkpt><trkpt lat="49.02112433252618" lon="2.4967065993223834"><ele>105.0</ele><time>2026-03-30T23:46:01.999Z</time></trkpt><trkpt lat="49.0213391359824" lon="2.49684264881307"><ele>105.0</ele><time>2026-03-30T23:46:02.999Z</time></trkpt><trkpt lat="49.02155074234398" lon="2.496978234669022"><ele>105.0</ele><time>2026-03-30T23:46:03.999Z</time></trkpt><trkpt lat="49.02176307090173" lon="2.497112514472575"><ele>105.0</ele><time>2026-03-30T23:46:04.998Z</time></trkpt><trkpt lat="49.021976014997165" lon="2.4972495310583698"><ele>105.0</ele><time>2026-03-30T23:46:05.998Z</time></trkpt><trkpt lat="49.02218719261904" lon="2.4973859141172263"><ele>105.0</ele><time>2026-03-30T23:46:06.998Z</time></trkpt><trkpt lat="49.022400457900325" lon="2.4975224423709794"><ele>105.0</ele><time>2026-03-30T23:46:07.998Z</time></trkpt><trkpt lat="49.02261417143489" lon="2.497658048678467"><ele>104.0</ele><time>2026-03-30T23:46:08.998Z</time></trkpt><trkpt lat="49.02282778016606" lon="2.4977935541109226"><ele>103.0</ele><time>2026-03-30T23:46:09.998Z</time></trkpt><trkpt lat="49.023041948477676" lon="2.497928862978546"><ele>102.5</ele><time>2026-03-30T23:46:10.998Z</time></trkpt><trkpt lat="49.02325429230652" lon="2.4980639931863804"><ele>102.0</ele><time>2026-03-30T23:46:11.998Z</time></trkpt><trkpt lat="49.02346470914738" lon="2.4982040301719777"><ele>101.5</ele><time>2026-03-30T23:46:12.998Z</time></trkpt><trkpt lat="49.023675791255805" lon="2.4983428416656275"><ele>101.0</ele><time>2026-03-30T23:46:13.998Z</time></trkpt><trkpt lat="49.02388669744415" lon="2.498489622976221"><ele>101.0</ele><time>2026-03-30T23:46:14.998Z</time></trkpt><trkpt lat="49.02409420415668" lon="2.49864971740703"><ele>101.0</ele><time>2026-03-30T23:46:15.998Z</time></trkpt><trkpt lat="49.02429641925454" lon="2.498820512080799"><ele>101.33333333333333</ele><time>2026-03-30T23:46:16.998Z</time></trkpt><trkpt lat="49.024491222257375" lon="2.498990668573698"><ele>101.66666666666666</ele><time>2026-03-30T23:46:17.998Z</time></trkpt><trkpt lat="49.02467208321673" lon="2.4991554361864456"><ele>102.0</ele><time>2026-03-30T23:46:18.998Z</time></trkpt><trkpt lat="49.02484419580096" lon="2.499313416946577"><ele>102.0</ele><time>2026-03-30T23:46:19.998Z</time></trkpt><trkpt lat="49.02501821139137" lon="2.4994569624733454"><ele>102.0</ele><time>2026-03-30T23:46:20.998Z</time></trkpt><trkpt lat="49.025192299679716" lon="2.4995894448493914"><ele>102.0</ele><time>2026-03-30T23:46:21.998Z</time></trkpt><trkpt lat="49.02535907318537" lon="2.499706023689433"><ele>102.0</ele><time>2026-03-30T23:46:22.998Z</time></trkpt><trkpt lat="49.025531847334584" lon="2.499806156494919"><ele>102.0</ele><time>2026-03-30T23:46:23.998Z</time></trkpt><trkpt lat="49.02570678170342" lon="2.499885594127733"><ele>102.0</ele><time>2026-03-30T23:46:24.998Z</time></trkpt><trkpt lat="49.025884427858045" lon="2.4999436020940204"><ele>102.0</ele><time>2026-03-30T23:46:25.998Z</time></trkpt><trkpt lat="49.02606797413244" lon="2.499981407066998"><ele>102.0</ele><time>2026-03-30T23:46:26.998Z</time></trkpt><trkpt lat="49.026254513251146" lon="2.49999594487462"><ele>102.0</ele><time>2026-03-30T23:46:27.998Z</time></trkpt><trkpt lat="49.0264410058933" lon="2.4999885255317524"><ele>102.0</ele><time>2026-03-30T23:46:29Z</time></trkpt><trkpt lat="49.02662762153931" lon="2.499948815215878"><ele>102.0</ele><time>2026-03-30T23:46:30Z</time></trkpt><trkpt lat="49.026811551681604" lon="2.4999130498005324"><ele>102.0</ele><time>2026-03-30T23:46:31Z</time></trkpt><trkpt lat="49.02699451016255" lon="2.4998625640260723"><ele>101.0</ele><time>2026-03-30T23:46:32Z</time></trkpt><trkpt lat="49.02717428922465" lon="2.4998034119593733"><ele>100.0</ele><time>2026-03-30T23:46:33Z</time></trkpt><trkpt lat="49.02735462877199" lon="2.499745881983954"><ele>99.0</ele><time>2026-03-30T23:46:34Z</time></trkpt><trkpt lat="49.027534664317734" lon="2.4997050888755674"><ele>98.66666666666666</ele><time>2026-03-30T23:46:35Z</time></trkpt><trkpt lat="49.027712990644304" lon="2.499683006469006"><ele>98.33333333333333</ele><time>2026-03-30T23:46:36Z</time></trkpt><trkpt lat="49.02788396314861" lon="2.49968370750796"><ele>98.0</ele><time>2026-03-30T23:46:37Z</time></trkpt><trkpt lat="49.028046600585384" lon="2.499701346953142"><ele>98.0</ele><time>2026-03-30T23:46:38Z</time></trkpt><trkpt lat="49.02819060076801" lon="2.499726087998809"><ele>98.0</ele><time>2026-03-30T23:46:39Z</time></trkpt><trkpt lat="49.028315154659694" lon="2.4997558860283378"><ele>98.0</ele><time>2026-03-30T23:46:40Z</time></trkpt><trkpt lat="49.028429751251636" lon="2.4997872540031123"><ele>98.0</ele><time>2026-03-30T23:46:41Z</time></trkpt><trkpt lat="49.028530292274624" lon="2.4998204809977413"><ele>98.2</ele><time>2026-03-30T23:46:42Z</time></trkpt><trkpt lat="49.02861538481976" lon="2.499861134824394"><ele>98.4</ele><time>2026-03-30T23:46:43Z</time></trkpt><trkpt lat="49.02868802395648" lon="2.4999278403235508"><ele>98.60000000000001</ele><time>2026-03-30T23:46:44Z</time></trkpt><trkpt lat="49.02874352623343" lon="2.5000282308136"><ele>98.80000000000001</ele><time>2026-03-30T23:46:45Z</time></trkpt><trkpt lat="49.02878998444801" lon="2.500146148419171"><ele>99.0</ele><time>2026-03-30T23:46:46Z</time></trkpt><trkpt lat="49.02885766411731" lon="2.5002583118638917"><ele>99.0</ele><time>2026-03-30T23:46:47Z</time></trkpt><trkpt lat="49.028918309609416" lon="2.5003703196984475"><ele>99.0</ele><time>2026-03-30T23:46:48Z</time></trkpt><trkpt lat="49.028991978373384" lon="2.5004713048304468"><ele>99.0</ele><time>2026-03-30T23:46:49Z</time></trkpt><trkpt lat="49.02907338299654" lon="2.5005584838743884"><ele>99.0</ele><time>2026-03-30T23:46:50Z</time></trkpt><trkpt lat="49.02916242794853" lon="2.5006276309257593"><ele>99.0</ele><time>2026-03-30T23:46:51Z</time></trkpt><trkpt lat="49.029256474127514" lon="2.500675816072897"><ele>98.80000000000001</ele><time>2026-03-30T23:46:52Z</time></trkpt><trkpt lat="49.02936375186129" lon="2.500699793295287"><ele>98.60000000000001</ele><time>2026-03-30T23:46:53Z</time></trkpt><trkpt lat="49.02947209052756" lon="2.500698090430021"><ele>98.4</ele><time>2026-03-30T23:46:54Z</time></trkpt><trkpt lat="49.029579920048725" lon="2.5006694420988795"><ele>98.2</ele><time>2026-03-30T23:46:55Z</time></trkpt><trkpt lat="49.02967979646867" lon="2.500616328655679"><ele>98.0</ele><time>2026-03-30T23:46:56Z</time></trkpt><trkpt lat="49.0297715189716" lon="2.5005489513002774"><ele>98.0</ele><time>2026-03-30T23:46:57Z</time></trkpt><trkpt lat="49.02985397081572" lon="2.5004737634677556"><ele>98.0</ele><time>2026-03-30T23:46:58Z</time></trkpt><trkpt lat="49.029948355916254" lon="2.500412445397668"><ele>98.0</ele><time>2026-03-30T23:46:59Z</time></trkpt><trkpt lat="49.03005330660806" lon="2.500381770981046"><ele>98.0</ele><time>2026-03-30T23:47:00Z</time></trkpt><trkpt lat="49.03015881598489" lon="2.50038116061149"><ele>98.0</ele><time>2026-03-30T23:47:01Z</time></trkpt><trkpt lat="49.030262208717794" lon="2.500410723241879"><ele>98.2</ele><time>2026-03-30T23:47:02Z</time></trkpt><trkpt lat="49.03035930301578" lon="2.5004685990126823"><ele>98.4</ele><time>2026-03-30T23:47:03Z</time></trkpt><trkpt lat="49.03044638690938" lon="2.500556136412706"><ele>98.60000000000001</ele><time>2026-03-30T23:47:04Z</time></trkpt><trkpt lat="49.03053294251092" lon="2.5006648661495468"><ele>98.80000000000001</ele><time>2026-03-30T23:47:05Z</time></trkpt><trkpt lat="49.03061895624001" lon="2.500799116590269"><ele>99.0</ele><time>2026-03-30T23:47:06Z</time></trkpt><trkpt lat="49.03071170216817" lon="2.500965759085191"><ele>99.0</ele><time>2026-03-30T23:47:07Z</time></trkpt><trkpt lat="49.03080510514577" lon="2.501149895503036"><ele>99.0</ele><time>2026-03-30T23:47:07.999Z</time></trkpt><trkpt lat="49.03090091885018" lon="2.501345770954754"><ele>99.0</ele><time>2026-03-30T23:47:08.999Z</time></trkpt><trkpt lat="49.03099851693175" lon="2.501557255862444"><ele>99.66666666666666</ele><time>2026-03-30T23:47:09.999Z</time></trkpt><trkpt lat="49.031089255947634" lon="2.501785693932374"><ele>100.33333333333333</ele><time>2026-03-30T23:47:10.999Z</time></trkpt><trkpt lat="49.03117611725788" lon="2.502014164528081"><ele>101.0</ele><time>2026-03-30T23:47:11.999Z</time></trkpt><trkpt lat="49.03127000446285" lon="2.502257871582434"><ele>101.33333333333333</ele><time>2026-03-30T23:47:12.999Z</time></trkpt><trkpt lat="49.031368447507795" lon="2.5025057458024227"><ele>101.66666666666666</ele><time>2026-03-30T23:47:13.999Z</time></trkpt><trkpt lat="49.0314677845596" lon="2.502745590346216"><ele>102.0</ele><time>2026-03-30T23:47:14.999Z</time></trkpt><trkpt lat="49.03158015374979" lon="2.50297549762653"><ele>102.33333333333334</ele><time>2026-03-30T23:47:15.999Z</time></trkpt><trkpt lat="49.03170568108515" lon="2.5031843194667567"><ele>102.66666666666667</ele><time>2026-03-30T23:47:16.999Z</time></trkpt><trkpt lat="49.03184369259979" lon="2.503374018398313"><ele>103.0</ele><time>2026-03-30T23:47:17.999Z</time></trkpt><trkpt lat="49.03199231166187" lon="2.503547616164356"><ele>103.0</ele><time>2026-03-30T23:47:18.999Z</time></trkpt><trkpt lat="49.03215260142009" lon="2.503706617479247"><ele>103.0</ele><time>2026-03-30T23:47:19.999Z</time></trkpt><trkpt lat="49.03231939250432" lon="2.5038490364193304"><ele>103.0</ele><time>2026-03-30T23:47:20.999Z</time></trkpt><trkpt lat="49.03249123873056" lon="2.5039768101889295"><ele>102.66666666666667</ele><time>2026-03-30T23:47:21.999Z</time></trkpt><trkpt lat="49.03266914966161" lon="2.504096775199076"><ele>102.33333333333334</ele><time>2026-03-30T23:47:22.999Z</time></trkpt><trkpt lat="49.03285402823115" lon="2.504212616854469"><ele>102.0</ele><time>2026-03-30T23:47:23.999Z</time></trkpt><trkpt lat="49.03303890528816" lon="2.5043328544896446"><ele>102.0</ele><time>2026-03-30T23:47:24.999Z</time></trkpt><trkpt lat="49.033225894278594" lon="2.5044570061751283"><ele>102.0</ele><time>2026-03-30T23:47:25.999Z</time></trkpt><trkpt lat="49.033413433503235" lon="2.5045839262867697"><ele>102.0</ele><time>2026-03-30T23:47:26.999Z</time></trkpt><trkpt lat="49.033602704670656" lon="2.504710778602318"><ele>101.66666666666666</ele><time>2026-03-30T23:47:27.999Z</time></trkpt><trkpt lat="49.03379611526132" lon="2.5048376658601272"><ele>101.33333333333333</ele><time>2026-03-30T23:47:28.999Z</time></trkpt><trkpt lat="49.0339869960345" lon="2.50496464231993"><ele>101.0</ele><time>2026-03-30T23:47:29.999Z</time></trkpt><trkpt lat="49.03418109827344" lon="2.5050941436980665"><ele>100.33333333333333</ele><time>2026-03-30T23:47:30.999Z</time></trkpt><trkpt lat="49.0343733802678" lon="2.505225641251078"><ele>99.66666666666666</ele><time>2026-03-30T23:47:31.999Z</time></trkpt><trkpt lat="49.03456950788434" lon="2.5053586639410956"><ele>99.0</ele><time>2026-03-30T23:47:32.999Z</time></trkpt><trkpt lat="49.03476882757746" lon="2.505500039598382"><ele>98.66666666666666</ele><time>2026-03-30T23:47:33.999Z</time></trkpt><trkpt lat="49.034968437143554" lon="2.505642470397819"><ele>98.33333333333333</ele><time>2026-03-30T23:47:34.999Z</time></trkpt><trkpt lat="49.035157220225784" lon="2.5057836693947597"><ele>98.0</ele><time>2026-03-30T23:47:35.999Z</time></trkpt><trkpt lat="49.035339056282794" lon="2.50592390635052"><ele>96.66666666666666</ele><time>2026-03-30T23:47:36.999Z</time></trkpt><trkpt lat="49.03551881638019" lon="2.5060698403952024"><ele>95.33333333333333</ele><time>2026-03-30T23:47:37.999Z</time></trkpt><trkpt lat="49.03569733407052" lon="2.5062191350771985"><ele>94.0</ele><time>2026-03-30T23:47:38.999Z</time></trkpt><trkpt lat="49.035875407099496" lon="2.506369501227659"><ele>93.33333333333333</ele><time>2026-03-30T23:47:39.999Z</time></trkpt><trkpt lat="49.036056063649845" lon="2.506518921326587"><ele>92.66666666666667</ele><time>2026-03-30T23:47:40.999Z</time></trkpt><trkpt lat="49.03623603196315" lon="2.506670078991882"><ele>92.0</ele><time>2026-03-30T23:47:41.999Z</time></trkpt><trkpt lat="49.036418751412164" lon="2.5068223301222234"><ele>92.0</ele><time>2026-03-30T23:47:42.999Z</time></trkpt><trkpt lat="49.03660254902909" lon="2.5069731019447294"><ele>92.0</ele><time>2026-03-30T23:47:43.999Z</time></trkpt><trkpt lat="49.036786346609574" lon="2.5071292101000373"><ele>92.0</ele><time>2026-03-30T23:47:44.999Z</time></trkpt><trkpt lat="49.03697077082417" lon="2.5072889102112725"><ele>91.33333333333334</ele><time>2026-03-30T23:47:45.999Z</time></trkpt><trkpt lat="49.03715607177908" lon="2.507445296100876"><ele>90.66666666666667</ele><time>2026-03-30T23:47:46.999Z</time></trkpt><trkpt lat="49.03734465022968" lon="2.507600857880818"><ele>90.0</ele><time>2026-03-30T23:47:47.999Z</time></trkpt><trkpt lat="49.03753529724644" lon="2.507758781914534"><ele>88.33333333333333</ele><time>2026-03-30T23:47:48.999Z</time></trkpt><trkpt lat="49.037721882855045" lon="2.5079161629800826"><ele>86.66666666666666</ele><time>2026-03-30T23:47:49.999Z</time></trkpt><trkpt lat="49.03790692327113" lon="2.5080754270249375"><ele>85.0</ele><time>2026-03-30T23:47:50.999Z</time></trkpt><trkpt lat="49.03808729296659" lon="2.508234767049314"><ele>85.0</ele><time>2026-03-30T23:47:51.999Z</time></trkpt><trkpt lat="49.038272202351386" lon="2.5083954522951246"><ele>85.0</ele><time>2026-03-30T23:47:52.999Z</time></trkpt><trkpt lat="49.0384549966304" lon="2.50855838165724"><ele>85.0</ele><time>2026-03-30T23:47:53.999Z</time></trkpt><trkpt lat="49.038642722053105" lon="2.508719443171595"><ele>82.66666666666666</ele><time>2026-03-30T23:47:54.999Z</time></trkpt><trkpt lat="49.03883444145754" lon="2.508883076930256"><ele>80.33333333333333</ele><time>2026-03-30T23:47:55.999Z</time></trkpt><trkpt lat="49.03902186413862" lon="2.509042579408256"><ele>78.0</ele><time>2026-03-30T23:47:56.999Z</time></trkpt><trkpt lat="49.03920764171448" lon="2.509201411363847"><ele>78.0</ele><time>2026-03-30T23:47:57.999Z</time></trkpt><trkpt lat="49.03939395034041" lon="2.509352399190922"><ele>78.0</ele><time>2026-03-30T23:47:58.999Z</time></trkpt><trkpt lat="49.0395765674167" lon="2.509494100397765"><ele>78.0</ele><time>2026-03-30T23:47:59.999Z</time></trkpt><trkpt lat="49.03975864321237" lon="2.509626040092501"><ele>77.33333333333333</ele><time>2026-03-30T23:48:00.999Z</time></trkpt><trkpt lat="49.039939856520554" lon="2.5097420020849475"><ele>76.66666666666666</ele><time>2026-03-30T23:48:01.999Z</time></trkpt><trkpt lat="49.04012422044578" lon="2.5098601198931267"><ele>76.0</ele><time>2026-03-30T23:48:02.999Z</time></trkpt><trkpt lat="49.040309360075184" lon="2.5099698376594"><ele>79.0</ele><time>2026-03-30T23:48:03.999Z</time></trkpt><trkpt lat="49.040495133818695" lon="2.5100712237452845"><ele>82.0</ele><time>2026-03-30T23:48:04.999Z</time></trkpt><trkpt lat="49.040682254671765" lon="2.510166943072476"><ele>85.0</ele><time>2026-03-30T23:48:05.999Z</time></trkpt><trkpt lat="49.04087463831123" lon="2.5102545105790024"><ele>86.33333333333333</ele><time>2026-03-30T23:48:06.999Z</time></trkpt><trkpt lat="49.041069339752354" lon="2.5103387144892895"><ele>87.66666666666667</ele><time>2026-03-30T23:48:07.998Z</time></trkpt><trkpt lat="49.041263560265044" lon="2.5104180136058267"><ele>89.0</ele><time>2026-03-30T23:48:08.998Z</time></trkpt><trkpt lat="49.041458693813105" lon="2.5104951194170155"><ele>91.0</ele><time>2026-03-30T23:48:09.998Z</time></trkpt><trkpt lat="49.041652429188396" lon="2.5105587198632127"><ele>93.0</ele><time>2026-03-30T23:48:10.998Z</time></trkpt><trkpt lat="49.04184539361207" lon="2.5106149272119325"><ele>95.0</ele><time>2026-03-30T23:48:11.998Z</time></trkpt><trkpt lat="49.042038136091044" lon="2.510664637288564"><ele>95.0</ele><time>2026-03-30T23:48:12.998Z</time></trkpt><trkpt lat="49.0422318407067" lon="2.5107081856751114"><ele>95.0</ele><time>2026-03-30T23:48:13.998Z</time></trkpt><trkpt lat="49.04242323186267" lon="2.5107480554008257"><ele>95.0</ele><time>2026-03-30T23:48:14.998Z</time></trkpt><trkpt lat="49.042608066487894" lon="2.510786757680596"><ele>95.66666666666667</ele><time>2026-03-30T23:48:15.998Z</time></trkpt><trkpt lat="49.04278430873892" lon="2.5108240254325067"><ele>96.33333333333334</ele><time>2026-03-30T23:48:16.998Z</time></trkpt><trkpt lat="49.04295817235722" lon="2.510859198869012"><ele>97.0</ele><time>2026-03-30T23:48:17.998Z</time></trkpt><trkpt lat="49.04312901992445" lon="2.510892998690799"><ele>97.0</ele><time>2026-03-30T23:48:18.998Z</time></trkpt><trkpt lat="49.043292912050944" lon="2.51092611277335"><ele>97.0</ele><time>2026-03-30T23:48:19.998Z</time></trkpt><trkpt lat="49.04345069055452" lon="2.510960101456951"><ele>97.0</ele><time>2026-03-30T23:48:20.998Z</time></trkpt><trkpt lat="49.043610041915734" lon="2.5109936680285108"><ele>98.33333333333334</ele><time>2026-03-30T23:48:21.998Z</time></trkpt><trkpt lat="49.04376605656577" lon="2.5110200236366453"><ele>99.66666666666666</ele><time>2026-03-30T23:48:22.998Z</time></trkpt><trkpt lat="49.04391956982428" lon="2.511054644532289"><ele>101.0</ele><time>2026-03-30T23:48:23.998Z</time></trkpt><trkpt lat="49.04407170018295" lon="2.5110898006986773"><ele>101.75</ele><time>2026-03-30T23:48:24.998Z</time></trkpt><trkpt lat="49.044225233666374" lon="2.511123915615826"><ele>102.5</ele><time>2026-03-30T23:48:25.998Z</time></trkpt><trkpt lat="49.04436833429575" lon="2.5111607594028427"><ele>103.25</ele><time>2026-03-30T23:48:26.998Z</time></trkpt><trkpt lat="49.04449115727087" lon="2.511183390448269"><ele>104.0</ele><time>2026-03-30T23:48:27.998Z</time></trkpt><trkpt lat="49.0446056435946" lon="2.5112106291144904"><ele>104.0</ele><time>2026-03-30T23:48:28.998Z</time></trkpt><trkpt lat="49.044696938292226" lon="2.5112335038684748"><ele>104.0</ele><time>2026-03-30T23:48:29.998Z</time></trkpt><trkpt lat="49.04478111703663" lon="2.511254814931308"><ele>104.0</ele><time>2026-03-30T23:48:30.998Z</time></trkpt><trkpt lat="49.04508892715656" lon="2.5112843179292534"><ele>103.80000000000001</ele><time>2026-03-30T23:48:31.998Z</time></trkpt><trkpt lat="49.04520371925123" lon="2.5113164422768843"><ele>103.60000000000001</ele><time>2026-03-30T23:48:32.998Z</time></trkpt><trkpt lat="49.04531026176452" lon="2.511344689021491"><ele>103.4</ele><time>2026-03-30T23:48:33.998Z</time></trkpt><trkpt lat="49.0454076137044" lon="2.5113738555089604"><ele>103.2</ele><time>2026-03-30T23:48:35Z</time></trkpt><trkpt lat="49.045500582026804" lon="2.511410639378587"><ele>103.0</ele><time>2026-03-30T23:48:36Z</time></trkpt><trkpt lat="49.04557723508101" lon="2.5114460946150525"><ele>103.00000000000001</ele><time>2026-03-30T23:48:37Z</time></trkpt><trkpt lat="49.04564910480391" lon="2.5114957248344174"><ele>103.0</ele><time>2026-03-30T23:48:38Z</time></trkpt><trkpt lat="49.045709471799675" lon="2.5115738372179077"><ele>103.0</ele><time>2026-03-30T23:48:39Z</time></trkpt><trkpt lat="49.04576168083016" lon="2.5116833242338155"><ele>103.0</ele><time>2026-03-30T23:48:40Z</time></trkpt><trkpt lat="49.045820009226745" lon="2.51178597916088"><ele>103.00000000000001</ele><time>2026-03-30T23:48:41Z</time></trkpt><trkpt lat="49.04589241529721" lon="2.511827180409453"><ele>103.0</ele><time>2026-03-30T23:48:42Z</time></trkpt><trkpt lat="49.045977884633444" lon="2.5118121060297183"><ele>103.4</ele><time>2026-03-30T23:48:43Z</time></trkpt><trkpt lat="49.046051970531394" lon="2.5117391475569293"><ele>103.80000000000001</ele><time>2026-03-30T23:48:44Z</time></trkpt><trkpt lat="49.046107847560975" lon="2.511627988965512"><ele>104.2</ele><time>2026-03-30T23:48:45Z</time></trkpt><trkpt lat="49.04612329934851" lon="2.51148679898701"><ele>104.6</ele><time>2026-03-30T23:48:46Z</time></trkpt><trkpt lat="49.04609765450293" lon="2.511339334866315"><ele>105.0</ele><time>2026-03-30T23:48:47Z</time></trkpt><trkpt lat="49.04604117879613" lon="2.511205431249744"><ele>105.4</ele><time>2026-03-30T23:48:48Z</time></trkpt><trkpt lat="49.04597754209581" lon="2.5110860142420943"><ele>105.8</ele><time>2026-03-30T23:48:49Z</time></trkpt><trkpt lat="49.04592896448462" lon="2.510959834150081"><ele>106.19999999999999</ele><time>2026-03-30T23:48:50Z</time></trkpt><trkpt lat="49.045886287153905" lon="2.5108368571910504"><ele>106.6</ele><time>2026-03-30T23:48:51Z</time></trkpt><trkpt lat="49.04584765383654" lon="2.5107123452182334"><ele>107.0</ele><time>2026-03-30T23:48:52Z</time></trkpt><trkpt lat="49.04581024558352" lon="2.510590409755377"><ele>107.16666666666666</ele><time>2026-03-30T23:48:53Z</time></trkpt><trkpt lat="49.04577312654514" lon="2.510466502441831"><ele>107.33333333333333</ele><time>2026-03-30T23:48:54Z</time></trkpt><trkpt lat="49.04573331300026" lon="2.5103331021321007"><ele>107.5</ele><time>2026-03-30T23:48:55Z</time></trkpt><trkpt lat="49.0457055568546" lon="2.510219546012851"><ele>107.66666666666666</ele><time>2026-03-30T23:48:56Z</time></trkpt><trkpt lat="49.0456742295216" lon="2.5101105974907925"><ele>107.83333333333333</ele><time>2026-03-30T23:48:57Z</time></trkpt><trkpt lat="49.045651745607934" lon="2.5100025694744534"><ele>108.0</ele><time>2026-03-30T23:48:58Z</time></trkpt><trkpt lat="49.04565524485755" lon="2.509881454840308"><ele>108.0</ele><time>2026-03-30T23:48:59Z</time></trkpt><trkpt lat="49.04569323350618" lon="2.5097648785863482"><ele>108.0</ele><time>2026-03-30T23:49:00Z</time></trkpt><trkpt lat="49.04573341465756" lon="2.5096570869274557"><ele>108.0</ele><time>2026-03-30T23:49:01Z</time></trkpt><trkpt lat="49.04577940845098" lon="2.5095579407067974"><ele>108.0</ele><time>2026-03-30T23:49:02Z</time></trkpt><trkpt lat="49.04583378322522" lon="2.5094655297164103"><ele>108.0</ele><time>2026-03-30T23:49:03Z</time></trkpt><trkpt lat="49.04589455675077" lon="2.509396708783755"><ele>108.0</ele><time>2026-03-30T23:49:04Z</time></trkpt><trkpt lat="49.045958256275824" lon="2.509321169905321"><ele>108.33333333333333</ele><time>2026-03-30T23:49:05Z</time></trkpt><trkpt lat="49.046012446641626" lon="2.509231740429372"><ele>108.66666666666666</ele><time>2026-03-30T23:49:06Z</time></trkpt><trkpt lat="49.04607521933291" lon="2.5091456632689892"><ele>109.0</ele><time>2026-03-30T23:49:07Z</time></trkpt><trkpt lat="49.046137873864026" lon="2.5090652811765577"><ele>109.33333333333333</ele><time>2026-03-30T23:49:08Z</time></trkpt><trkpt lat="49.04620353080292" lon="2.508962952256321"><ele>109.66666666666666</ele><time>2026-03-30T23:49:09Z</time></trkpt><trkpt lat="49.04627902201745" lon="2.5088515887778753"><ele>110.0</ele><time>2026-03-30T23:49:10Z</time></trkpt><trkpt lat="49.046369518325314" lon="2.508750351169084"><ele>110.0</ele><time>2026-03-30T23:49:11Z</time></trkpt><trkpt lat="49.046445572148286" lon="2.5086483464456224"><ele>110.0</ele><time>2026-03-30T23:49:12Z</time></trkpt><trkpt lat="49.04651506180048" lon="2.508542637752757"><ele>110.0</ele><time>2026-03-30T23:49:13Z</time></trkpt><trkpt lat="49.04658657306994" lon="2.5084404483559424"><ele>110.0</ele><time>2026-03-30T23:49:14Z</time></trkpt><trkpt lat="49.04666349239989" lon="2.5083379618499038"><ele>110.0</ele><time>2026-03-30T23:49:15Z</time></trkpt><trkpt lat="49.04674057532021" lon="2.508233315815493"><ele>110.0</ele><time>2026-03-30T23:49:16Z</time></trkpt><trkpt lat="49.046818573484046" lon="2.508129001119793"><ele>110.0</ele><time>2026-03-30T23:49:16.999Z</time></trkpt><trkpt lat="49.04689358451393" lon="2.5080273663579207"><ele>110.0</ele><time>2026-03-30T23:49:17.999Z</time></trkpt><trkpt lat="49.04696576258743" lon="2.5079266712372266"><ele>110.0</ele><time>2026-03-30T23:49:18.999Z</time></trkpt><trkpt lat="49.04703595215222" lon="2.507832426482477"><ele>110.0</ele><time>2026-03-30T23:49:19.999Z</time></trkpt><trkpt lat="49.04710623608395" lon="2.507733151173394"><ele>110.33333333333333</ele><time>2026-03-30T23:49:20.999Z</time></trkpt><trkpt lat="49.04717299645063" lon="2.5076412250122404"><ele>110.66666666666666</ele><time>2026-03-30T23:49:21.999Z</time></trkpt><trkpt lat="49.04723114164065" lon="2.5075559462619155"><ele>111.0</ele><time>2026-03-30T23:49:22.999Z</time></trkpt><trkpt lat="49.04730387465488" lon="2.507465207345469"><ele>111.33333333333334</ele><time>2026-03-30T23:49:23.999Z</time></trkpt><trkpt lat="49.047347962999616" lon="2.507393137440336"><ele>111.66666666666667</ele><time>2026-03-30T23:49:24.999Z</time></trkpt><trkpt lat="49.04738750112667" lon="2.5073143242356855"><ele>112.0</ele><time>2026-03-30T23:49:25.999Z</time></trkpt><trkpt lat="49.047437406212396" lon="2.5072516601889903"><ele>112.00000000000001</ele><time>2026-03-30T23:49:26.999Z</time></trkpt><trkpt lat="49.047488020055425" lon="2.5071873426494617"><ele>112.0</ele><time>2026-03-30T23:49:27.999Z</time></trkpt><trkpt lat="49.0475724881928" lon="2.507076576571053"><ele>112.0</ele><time>2026-03-30T23:49:29.999Z</time></trkpt><trkpt lat="49.04764124031727" lon="2.5069800287676816"><ele>112.0</ele><time>2026-03-30T23:49:31.999Z</time></trkpt><trkpt lat="49.0476945142913" lon="2.506898847364711"><ele>112.00000000000001</ele><time>2026-03-30T23:49:33.999Z</time></trkpt><trkpt lat="49.04774166978628" lon="2.5068327223293174"><ele>112.0</ele><time>2026-03-30T23:49:35.999Z</time></trkpt><trkpt lat="49.04780369793624" lon="2.5067582986648813"><ele>111.85714285714286</ele><time>2026-03-30T23:49:38.999Z</time></trkpt><trkpt lat="49.047849398677755" lon="2.5066881714390585"><ele>111.71428571428572</ele><time>2026-03-30T23:49:43.999Z</time></trkpt><trkpt lat="49.04790636635365" lon="2.506634460731974"><ele>111.57142857142857</ele><time>2026-03-30T23:50:10.999Z</time></trkpt><trkpt lat="49.04795398837867" lon="2.506561351484127"><ele>111.42857142857143</ele><time>2026-03-30T23:50:12.999Z</time></trkpt><trkpt lat="49.04803067359009" lon="2.5064640827435194"><ele>111.28571428571429</ele><time>2026-03-30T23:50:14.999Z</time></trkpt><trkpt lat="49.048081740894034" lon="2.506400482007843"><ele>111.14285714285714</ele><time>2026-03-30T23:50:15.999Z</time></trkpt><trkpt lat="49.048137195143106" lon="2.506327195571898"><ele>111.0</ele><time>2026-03-30T23:50:16.999Z</time></trkpt><trkpt lat="49.048193548401926" lon="2.506244893440217"><ele>111.16666666666667</ele><time>2026-03-30T23:50:17.999Z</time></trkpt><trkpt lat="49.048261348236984" lon="2.5061564149748863"><ele>111.33333333333334</ele><time>2026-03-30T23:50:18.999Z</time></trkpt><trkpt lat="49.048325791267146" lon="2.506062915552026"><ele>111.5</ele><time>2026-03-30T23:50:19.998Z</time></trkpt><trkpt lat="49.04838636108603" lon="2.505966222526307"><ele>111.66666666666667</ele><time>2026-03-30T23:50:20.998Z</time></trkpt><trkpt lat="49.048448967612536" lon="2.505868008010303"><ele>111.83333333333334</ele><time>2026-03-30T23:50:21.998Z</time></trkpt><trkpt lat="49.04850841925475" lon="2.5057658043862756"><ele>112.0</ele><time>2026-03-30T23:50:22.998Z</time></trkpt><trkpt lat="49.04856510459667" lon="2.5056656898050256"><ele>112.00000000000001</ele><time>2026-03-30T23:50:23.998Z</time></trkpt><trkpt lat="49.048621321484234" lon="2.5055612537605456"><ele>112.0</ele><time>2026-03-30T23:50:24.998Z</time></trkpt><trkpt lat="49.04867635815862" lon="2.5054575172772444"><ele>112.0</ele><time>2026-03-30T23:50:25.998Z</time></trkpt><trkpt lat="49.048731915339964" lon="2.505355874077297"><ele>112.0</ele><time>2026-03-30T23:50:26.998Z</time></trkpt><trkpt lat="49.04879441959112" lon="2.505257683837922"><ele>112.00000000000001</ele><time>2026-03-30T23:50:27.998Z</time></trkpt><trkpt lat="49.048857403345814" lon="2.5051554062883854"><ele>112.0</ele><time>2026-03-30T23:50:28.998Z</time></trkpt><trkpt lat="49.0489156368933" lon="2.5050514167358706"><ele>111.8</ele><time>2026-03-30T23:50:29.998Z</time></trkpt><trkpt lat="49.04897342280085" lon="2.5049457411944527"><ele>111.6</ele><time>2026-03-30T23:50:30.998Z</time></trkpt><trkpt lat="49.0490315820239" lon="2.5048414462659108"><ele>111.39999999999999</ele><time>2026-03-30T23:50:31.998Z</time></trkpt><trkpt lat="49.04908887839254" lon="2.5047382775860307"><ele>111.19999999999999</ele><time>2026-03-30T23:50:32.998Z</time></trkpt><trkpt lat="49.04914729418832" lon="2.504635332710994"><ele>111.0</ele><time>2026-03-30T23:50:33.998Z</time></trkpt><trkpt lat="49.0492090845579" lon="2.5045289241456907"><ele>109.8</ele><time>2026-03-30T23:50:34.998Z</time></trkpt><trkpt lat="49.04927213915832" lon="2.504428307613061"><ele>108.6</ele><time>2026-03-30T23:50:35.998Z</time></trkpt><trkpt lat="49.04933197844246" lon="2.504324497084563"><ele>107.4</ele><time>2026-03-30T23:50:36.998Z</time></trkpt><trkpt lat="49.049395105413126" lon="2.50421720544679"><ele>106.2</ele><time>2026-03-30T23:50:37.998Z</time></trkpt><trkpt lat="49.04945750447998" lon="2.504114251028995"><ele>105.0</ele><time>2026-03-30T23:50:38.998Z</time></trkpt><trkpt lat="49.049518391982204" lon="2.504009272860801"><ele>105.0</ele><time>2026-03-30T23:50:39.998Z</time></trkpt><trkpt lat="49.04958185707227" lon="2.503903535714251"><ele>105.0</ele><time>2026-03-30T23:50:41Z</time></trkpt><trkpt lat="49.04964559689217" lon="2.503792253465062"><ele>105.0</ele><time>2026-03-30T23:50:42Z</time></trkpt><trkpt lat="49.04971318321205" lon="2.5036815010411404"><ele>105.0</ele><time>2026-03-30T23:50:43Z</time></trkpt><trkpt lat="49.049774853684546" lon="2.5035705804397805"><ele>105.0</ele><time>2026-03-30T23:50:44Z</time></trkpt><trkpt lat="49.049841564234306" lon="2.503461995092432"><ele>104.0</ele><time>2026-03-30T23:50:45Z</time></trkpt><trkpt lat="49.04990224985217" lon="2.5033552810103687"><ele>103.0</ele><time>2026-03-30T23:50:46Z</time></trkpt><trkpt lat="49.049967104415074" lon="2.5032475966729533"><ele>102.0</ele><time>2026-03-30T23:50:47Z</time></trkpt><trkpt lat="49.05003305807604" lon="2.503136913489141"><ele>101.0</ele><time>2026-03-30T23:50:48Z</time></trkpt><trkpt lat="49.050092814460314" lon="2.503031812482888"><ele>100.0</ele><time>2026-03-30T23:50:49Z</time></trkpt><trkpt lat="49.05016534540135" lon="2.502929216084567"><ele>100.16666666666667</ele><time>2026-03-30T23:50:50Z</time></trkpt><trkpt lat="49.05021712562453" lon="2.50282380268367"><ele>100.33333333333334</ele><time>2026-03-30T23:50:51Z</time></trkpt><trkpt lat="49.05026855693908" lon="2.5027549457988925"><ele>100.5</ele><time>2026-03-30T23:50:52Z</time></trkpt><trkpt lat="49.050340846893825" lon="2.5026883986503194"><ele>100.66666666666666</ele><time>2026-03-30T23:50:53Z</time></trkpt><trkpt lat="49.050427945961275" lon="2.502658317773068"><ele>100.83333333333333</ele><time>2026-03-30T23:50:54Z</time></trkpt><trkpt lat="49.050505334367706" lon="2.5026324153129837"><ele>101.0</ele><time>2026-03-30T23:50:55Z</time></trkpt><trkpt lat="49.050581507961574" lon="2.5026046849166406"><ele>101.0</ele><time>2026-03-30T23:50:56Z</time></trkpt><trkpt lat="49.0506634167762" lon="2.5025811572813828"><ele>101.0</ele><time>2026-03-30T23:50:57Z</time></trkpt><trkpt lat="49.05076424651671" lon="2.502554625688314"><ele>101.0</ele><time>2026-03-30T23:50:58Z</time></trkpt><trkpt lat="49.050866147831634" lon="2.5025252983480923"><ele>101.0</ele><time>2026-03-30T23:50:59Z</time></trkpt><trkpt lat="49.050969381611324" lon="2.5024949483856784"><ele>101.0</ele><time>2026-03-30T23:51:00Z</time></trkpt><trkpt lat="49.05106664999914" lon="2.502463577326826"><ele>101.0</ele><time>2026-03-30T23:51:01Z</time></trkpt><trkpt lat="49.05116667812448" lon="2.5024292221576796"><ele>101.0</ele><time>2026-03-30T23:51:02Z</time></trkpt><trkpt lat="49.051265763210026" lon="2.5023951270027847"><ele>101.0</ele><time>2026-03-30T23:51:03Z</time></trkpt><trkpt lat="49.05136290860916" lon="2.502357869644991"><ele>101.0</ele><time>2026-03-30T23:51:04Z</time></trkpt><trkpt lat="49.051459508249344" lon="2.502346305227623"><ele>101.0</ele><time>2026-03-30T23:51:05Z</time></trkpt><trkpt lat="49.05155569130096" lon="2.5023087814068656"><ele>101.6</ele><time>2026-03-30T23:51:06Z</time></trkpt><trkpt lat="49.05165404712782" lon="2.5022592958197993"><ele>102.19999999999999</ele><time>2026-03-30T23:51:07Z</time></trkpt><trkpt lat="49.05174564801862" lon="2.5022359330871815"><ele>102.80000000000001</ele><time>2026-03-30T23:51:08Z</time></trkpt><trkpt lat="49.05184041806342" lon="2.5022066250349653"><ele>103.4</ele><time>2026-03-30T23:51:09Z</time></trkpt><trkpt lat="49.05193428019666" lon="2.5021730724439943"><ele>104.0</ele><time>2026-03-30T23:51:10Z</time></trkpt><trkpt lat="49.05203374661614" lon="2.5021460344343445"><ele>104.0</ele><time>2026-03-30T23:51:11Z</time></trkpt><trkpt lat="49.0521300959293" lon="2.5021185694340127"><ele>104.0</ele><time>2026-03-30T23:51:12Z</time></trkpt><trkpt lat="49.05223208227815" lon="2.5020855335285908"><ele>104.0</ele><time>2026-03-30T23:51:13Z</time></trkpt><trkpt lat="49.05233109827392" lon="2.502061707002963"><ele>104.0</ele><time>2026-03-30T23:51:14Z</time></trkpt><trkpt lat="49.05241946913728" lon="2.5020359041009184"><ele>104.0</ele><time>2026-03-30T23:51:15Z</time></trkpt><trkpt lat="49.05251068648163" lon="2.5020071834613815"><ele>105.2</ele><time>2026-03-30T23:51:16Z</time></trkpt><trkpt lat="49.05260642223383" lon="2.5019843158934467"><ele>106.4</ele><time>2026-03-30T23:51:16.999Z</time></trkpt><trkpt lat="49.052697509093925" lon="2.5019415046080518"><ele>107.6</ele><time>2026-03-30T23:51:17.999Z</time></trkpt><trkpt lat="49.05278690728137" lon="2.50189873709203"><ele>108.8</ele><time>2026-03-30T23:51:18.999Z</time></trkpt><trkpt lat="49.052880722263716" lon="2.501891973774316"><ele>110.0</ele><time>2026-03-30T23:51:19.999Z</time></trkpt><trkpt lat="49.052969260495985" lon="2.501852965482705"><ele>110.0</ele><time>2026-03-30T23:51:20.999Z</time></trkpt><trkpt lat="49.05306207106362" lon="2.501842362533607"><ele>110.0</ele><time>2026-03-30T23:51:21.999Z</time></trkpt><trkpt lat="49.053153171946775" lon="2.5018292186933224"><ele>110.0</ele><time>2026-03-30T23:51:22.999Z</time></trkpt><trkpt lat="49.0532502744724" lon="2.501817678372326"><ele>110.0</ele><time>2026-03-30T23:51:23.999Z</time></trkpt><trkpt lat="49.053345853859135" lon="2.501790927784395"><ele>110.0</ele><time>2026-03-30T23:51:24.999Z</time></trkpt><trkpt lat="49.053442842505476" lon="2.501761862216328"><ele>110.6</ele><time>2026-03-30T23:51:25.999Z</time></trkpt><trkpt lat="49.05353896669296" lon="2.501732784201683"><ele>111.2</ele><time>2026-03-30T23:51:26.999Z</time></trkpt><trkpt lat="49.05363847701345" lon="2.5017036156980086"><ele>111.80000000000001</ele><time>2026-03-30T23:51:27.999Z</time></trkpt><trkpt lat="49.05374290991993" lon="2.501674629239309"><ele>112.4</ele><time>2026-03-30T23:51:28.999Z</time></trkpt><trkpt lat="49.05385012067926" lon="2.501646980319812"><ele>113.0</ele><time>2026-03-30T23:51:29.999Z</time></trkpt><trkpt lat="49.053956676562784" lon="2.5016198890698216"><ele>113.0</ele><time>2026-03-30T23:51:30.999Z</time></trkpt><trkpt lat="49.05406135582055" lon="2.5015886330226196"><ele>113.00000000000001</ele><time>2026-03-30T23:51:31.999Z</time></trkpt><trkpt lat="49.05416963133131" lon="2.5015604028427134"><ele>113.00000000000001</ele><time>2026-03-30T23:51:32.999Z</time></trkpt><trkpt lat="49.05426912842659" lon="2.5015317943311883"><ele>113.0</ele><time>2026-03-30T23:51:33.999Z</time></trkpt><trkpt lat="49.05437038724458" lon="2.5015033258105785"><ele>113.0</ele><time>2026-03-30T23:51:34.999Z</time></trkpt><trkpt lat="49.054472917082876" lon="2.501472599786156"><ele>114.0</ele><time>2026-03-30T23:51:35.999Z</time></trkpt><trkpt lat="49.05457023652912" lon="2.5014449928624907"><ele>115.00000000000001</ele><time>2026-03-30T23:51:36.999Z</time></trkpt><trkpt lat="49.05467219553013" lon="2.5014152787731527"><ele>116.00000000000001</ele><time>2026-03-30T23:51:37.999Z</time></trkpt><trkpt lat="49.05478838284543" lon="2.5013949856468987"><ele>117.0</ele><time>2026-03-30T23:51:38.999Z</time></trkpt><trkpt lat="49.0549044773086" lon="2.5013610419115273"><ele>118.0</ele><time>2026-03-30T23:51:39.999Z</time></trkpt><trkpt lat="49.05501862075" lon="2.501328517404419"><ele>118.4</ele><time>2026-03-30T23:51:40.999Z</time></trkpt><trkpt lat="49.05513544684936" lon="2.501292473985501"><ele>118.80000000000001</ele><time>2026-03-30T23:51:41.999Z</time></trkpt><trkpt lat="49.05524464649783" lon="2.5012652846211485"><ele>119.2</ele><time>2026-03-30T23:51:42.999Z</time></trkpt><trkpt lat="49.055358303354936" lon="2.5012435569027383"><ele>119.6</ele><time>2026-03-30T23:51:43.999Z</time></trkpt><trkpt lat="49.0554574269989" lon="2.5012139217188794"><ele>120.0</ele><time>2026-03-30T23:51:44.999Z</time></trkpt><trkpt lat="49.055555420654066" lon="2.501184757421817"><ele>120.0</ele><time>2026-03-30T23:51:45.999Z</time></trkpt><trkpt lat="49.055650442457264" lon="2.501158132800373"><ele>120.0</ele><time>2026-03-30T23:51:46.999Z</time></trkpt><trkpt lat="49.05574602976512" lon="2.5011306099841204"><ele>120.0</ele><time>2026-03-30T23:51:47.999Z</time></trkpt><trkpt lat="49.055835871838454" lon="2.5011054199882836"><ele>120.0</ele><time>2026-03-30T23:51:48.999Z</time></trkpt><trkpt lat="49.055920221576876" lon="2.5010815461736504"><ele>120.0</ele><time>2026-03-30T23:51:49.999Z</time></trkpt><trkpt lat="49.05600059755489" lon="2.50105869296071"><ele>119.66666666666667</ele><time>2026-03-30T23:51:50.999Z</time></trkpt><trkpt lat="49.056076244917186" lon="2.501037777141082"><ele>119.33333333333334</ele><time>2026-03-30T23:51:51.999Z</time></trkpt><trkpt lat="49.05619648457493" lon="2.501003742998067"><ele>119.0</ele><time>2026-03-30T23:51:53.999Z</time></trkpt><trkpt lat="49.056299549750854" lon="2.5009745363837035"><ele>118.66666666666667</ele><time>2026-03-30T23:51:55.999Z</time></trkpt><trkpt lat="49.05637076634028" lon="2.5009520167310337"><ele>118.33333333333334</ele><time>2026-03-30T23:51:57.999Z</time></trkpt><trkpt lat="49.056440851912114" lon="2.5009344685615846"><ele>118.0</ele><time>2026-03-30T23:51:59.999Z</time></trkpt><trkpt lat="49.05653907784178" lon="2.5009051587742954"><ele>118.00000000000001</ele><time>2026-03-30T23:52:01.999Z</time></trkpt><trkpt lat="49.05660276264143" lon="2.5008849951073566"><ele>118.0</ele><time>2026-03-30T23:52:02.999Z</time></trkpt><trkpt lat="49.056672650536896" lon="2.500863569848808"><ele>118.0</ele><time>2026-03-30T23:52:03.999Z</time></trkpt><trkpt lat="49.056761120803635" lon="2.5008422059359883"><ele>118.0</ele><time>2026-03-30T23:52:04.999Z</time></trkpt><trkpt lat="49.0568532034234" lon="2.500821214421657"><ele>118.00000000000001</ele><time>2026-03-30T23:52:05.999Z</time></trkpt><trkpt lat="49.056950077202906" lon="2.500799269412173"><ele>118.0</ele><time>2026-03-30T23:52:06.999Z</time></trkpt><trkpt lat="49.057041831580605" lon="2.5007769046398773"><ele>117.50000000000001</ele><time>2026-03-30T23:52:07.999Z</time></trkpt><trkpt lat="49.05712933536476" lon="2.5007555560543344"><ele>117.0</ele><time>2026-03-30T23:52:08.999Z</time></trkpt><trkpt lat="49.057206960312" lon="2.500733205683235"><ele>116.5</ele><time>2026-03-30T23:52:09.999Z</time></trkpt><trkpt lat="49.0572827372593" lon="2.5007193389017903"><ele>116.0</ele><time>2026-03-30T23:52:10.999Z</time></trkpt><trkpt lat="49.05735246436494" lon="2.500726890437926"><ele>115.50000000000001</ele><time>2026-03-30T23:52:11.999Z</time></trkpt><trkpt lat="49.057424059711444" lon="2.50075266038103"><ele>115.0</ele><time>2026-03-30T23:52:12.999Z</time></trkpt><trkpt lat="49.057492466827966" lon="2.500796200119942"><ele>114.85714285714283</ele><time>2026-03-30T23:52:13.999Z</time></trkpt><trkpt lat="49.057552983515535" lon="2.5008526616262987"><ele>114.71428571428571</ele><time>2026-03-30T23:52:14.999Z</time></trkpt><trkpt lat="49.05761473433158" lon="2.5009055035874983"><ele>114.57142857142856</ele><time>2026-03-30T23:52:15.999Z</time></trkpt><trkpt lat="49.05765990501946" lon="2.5009744846900817"><ele>114.42857142857142</ele><time>2026-03-30T23:52:16.999Z</time></trkpt><trkpt lat="49.057660417298244" lon="2.5010902665308943"><ele>114.28571428571428</ele><time>2026-03-30T23:52:17.999Z</time></trkpt><trkpt lat="49.057682945703895" lon="2.501194515235773"><ele>114.14285714285714</ele><time>2026-03-30T23:52:18.999Z</time></trkpt><trkpt lat="49.0577171841721" lon="2.501290601801685"><ele>114.0</ele><time>2026-03-30T23:52:19.998Z</time></trkpt><trkpt lat="49.05777463681085" lon="2.5014453753606265"><ele>114.0</ele><time>2026-03-30T23:52:21.998Z</time></trkpt><trkpt lat="49.05783206843358" lon="2.5015278420048834"><ele>114.0</ele><time>2026-03-30T23:52:23.998Z</time></trkpt><trkpt lat="49.05791316663055" lon="2.501612837830122"><ele>114.0</ele><time>2026-03-30T23:52:25.998Z</time></trkpt><trkpt lat="49.05801901996909" lon="2.5017268603159026"><ele>114.0</ele><time>2026-03-30T23:52:27.998Z</time></trkpt><trkpt lat="49.05807221090309" lon="2.5017882233662765"><ele>114.0</ele><time>2026-03-30T23:52:28.998Z</time></trkpt><trkpt lat="49.05813068189979" lon="2.501848156863035"><ele>114.0</ele><time>2026-03-30T23:52:29.998Z</time></trkpt><trkpt lat="49.058220320813206" lon="2.501940227465224"><ele>114.0</ele><time>2026-03-30T23:52:31.998Z</time></trkpt><trkpt lat="49.05828589671446" lon="2.5020241543051758"><ele>114.0</ele><time>2026-03-30T23:52:33.998Z</time></trkpt><trkpt lat="49.058367059630676" lon="2.5021097294945056"><ele>114.0</ele><time>2026-03-30T23:52:35.998Z</time></trkpt><trkpt lat="49.058420880927706" lon="2.50216669244716"><ele>114.0</ele><time>2026-03-30T23:52:36.998Z</time></trkpt><trkpt lat="49.058482872377816" lon="2.502233418812543"><ele>114.0</ele><time>2026-03-30T23:52:37.998Z</time></trkpt><trkpt lat="49.05856036318478" lon="2.502313658597974"><ele>114.0</ele><time>2026-03-30T23:52:38.998Z</time></trkpt><trkpt lat="49.05863317447885" lon="2.502390533798425"><ele>114.16666666666667</ele><time>2026-03-30T23:52:39.998Z</time></trkpt><trkpt lat="49.05871115141878" lon="2.5024706621213726"><ele>114.33333333333334</ele><time>2026-03-30T23:52:40.998Z</time></trkpt><trkpt lat="49.05877769517191" lon="2.5025451809085264"><ele>114.5</ele><time>2026-03-30T23:52:41.998Z</time></trkpt><trkpt lat="49.0588460543409" lon="2.502616977504072"><ele>114.66666666666667</ele><time>2026-03-30T23:52:42.998Z</time></trkpt><trkpt lat="49.05891710646278" lon="2.5026842076087235"><ele>114.83333333333334</ele><time>2026-03-30T23:52:43.998Z</time></trkpt><trkpt lat="49.058985353934226" lon="2.502759399565749"><ele>115.0</ele><time>2026-03-30T23:52:44.998Z</time></trkpt><trkpt lat="49.0590578476534" lon="2.502835840935789"><ele>115.0</ele><time>2026-03-30T23:52:45.998Z</time></trkpt><trkpt lat="49.059121512961006" lon="2.502905746642892"><ele>115.0</ele><time>2026-03-30T23:52:47Z</time></trkpt><trkpt lat="49.059179280340544" lon="2.5029657586105056"><ele>115.0</ele><time>2026-03-30T23:52:48Z</time></trkpt><trkpt lat="49.059267595708" lon="2.503049232963795"><ele>115.0</ele><time>2026-03-30T23:52:50Z</time></trkpt><trkpt lat="49.059356118062155" lon="2.5031433843055155"><ele>115.0</ele><time>2026-03-30T23:52:52Z</time></trkpt><trkpt lat="49.05946289427982" lon="2.5032119509442894"><ele>115.0</ele><time>2026-03-30T23:52:54Z</time></trkpt><trkpt lat="49.05955379668412" lon="2.5032724541517797"><ele>115.0</ele><time>2026-03-30T23:52:56Z</time></trkpt><trkpt lat="49.05956613506294" lon="2.5034236629177693"><ele>115.0</ele><time>2026-03-30T23:52:58Z</time></trkpt><trkpt lat="49.05958905391516" lon="2.503597590856191"><ele>115.0</ele><time>2026-03-30T23:53:00Z</time></trkpt><trkpt lat="49.05959187219392" lon="2.5037701473464313"><ele>115.0</ele><time>2026-03-30T23:53:02Z</time></trkpt><trkpt lat="49.05959791316309" lon="2.503899025691688"><ele>115.0</ele><time>2026-03-30T23:53:04Z</time></trkpt><trkpt lat="49.05968394781506" lon="2.5039256942394816"><ele>115.0</ele><time>2026-03-30T23:53:05Z</time></trkpt><trkpt lat="49.059791036674405" lon="2.5039290287872458"><ele>115.0</ele><time>2026-03-30T23:53:07Z</time></trkpt><trkpt lat="49.05989586258268" lon="2.503931385433055"><ele>115.0</ele><time>2026-03-30T23:53:09Z</time></trkpt><trkpt lat="49.06001075219503" lon="2.5039279272067723"><ele>115.0</ele><time>2026-03-30T23:53:11Z</time></trkpt><trkpt lat="49.06011502809348" lon="2.50394127123501"><ele>115.4</ele><time>2026-03-30T23:53:13Z</time></trkpt><trkpt lat="49.06020298974008" lon="2.5039812213649193"><ele>115.8</ele><time>2026-03-30T23:53:15Z</time></trkpt><trkpt lat="49.06026745762212" lon="2.504088265647765"><ele>116.19999999999999</ele><time>2026-03-30T23:53:17Z</time></trkpt><trkpt lat="49.06034450786331" lon="2.5042303956455254"><ele>116.6</ele><time>2026-03-30T23:53:19Z</time></trkpt><trkpt lat="49.06039019929784" lon="2.50431804071272"><ele>117.0</ele><time>2026-03-30T23:53:20Z</time></trkpt><trkpt lat="49.06044009941979" lon="2.5043912147822707"><ele>117.0</ele><time>2026-03-30T23:53:21Z</time></trkpt><trkpt lat="49.06051803787859" lon="2.5045000124300323"><ele>116.99999999999999</ele><time>2026-03-30T23:53:23Z</time></trkpt><trkpt lat="49.06058761855822" lon="2.504613929929522"><ele>116.99999999999999</ele><time>2026-03-30T23:53:25Z</time></trkpt><trkpt lat="49.06062561246507" lon="2.5046915092653657"><ele>117.0</ele><time>2026-03-30T23:53:26Z</time></trkpt><trkpt lat="49.060665347207944" lon="2.504846858669932"><ele>117.0</ele><time>2026-03-30T23:53:28Z</time></trkpt><trkpt lat="49.06069481606055" lon="2.5049858597361454"><ele>117.16666666666667</ele><time>2026-03-30T23:53:29.999Z</time></trkpt><trkpt lat="49.06070661239408" lon="2.505082785883459"><ele>117.33333333333334</ele><time>2026-03-30T23:53:32.999Z</time></trkpt><trkpt lat="49.06070906736633" lon="2.505183593057895"><ele>117.5</ele><time>2026-03-30T23:54:51.998Z</time></trkpt><trkpt lat="49.060583361148154" lon="2.505255340093258"><ele>117.66666666666667</ele><time>2026-03-30T23:54:59Z</time></trkpt><trkpt lat="49.06053652489012" lon="2.5053265152947133"><ele>117.83333333333334</ele><time>2026-03-30T23:55:07Z</time></trkpt><trkpt lat="49.06059353954903" lon="2.5052679253036243"><ele>118.0</ele><time>2026-03-30T23:55:36.999Z</time></trkpt><trkpt lat="49.06064547069806" lon="2.505193576538284"><ele>118.00000000000001</ele><time>2026-03-30T23:55:42.999Z</time></trkpt><trkpt lat="49.06070558354595" lon="2.505150627610105"><ele>118.0</ele><time>2026-03-30T23:56:23.999Z</time></trkpt><trkpt lat="49.06073192902203" lon="2.504949996543552"><ele>118.0</ele><time>2026-03-30T23:57:42Z</time></trkpt><trkpt lat="49.060664025665496" lon="2.504947006131501"><ele>118.0</ele><time>2026-03-30T23:57:46.999Z</time></trkpt><trkpt lat="49.06060407799583" lon="2.504987179893258"><ele>118.00000000000001</ele><time>2026-03-30T23:57:50.999Z</time></trkpt><trkpt lat="49.06053807278075" lon="2.5050302563785087"><ele>118.0</ele><time>2026-03-30T23:57:53.999Z</time></trkpt><trkpt lat="49.06049894560389" lon="2.5051156506171086"><ele>118.0</ele><time>2026-03-30T23:58:01.999Z</time></trkpt><trkpt lat="49.06043408574468" lon="2.5051228479685292"><ele>118.0</ele><time>2026-03-30T23:58:08.999Z</time></trkpt><trkpt lat="49.060359936772024" lon="2.505121431992127"><ele>118.0</ele><time>2026-03-30T23:58:13.999Z</time></trkpt><trkpt lat="49.06029211988808" lon="2.505129792187486"><ele>118.0</ele><time>2026-03-30T23:58:20.999Z</time></trkpt><trkpt lat="49.06022913543853" lon="2.505148588331985"><ele>118.0</ele><time>2026-03-30T23:58:25.999Z</time></trkpt><trkpt lat="49.060164195158805" lon="2.5051756881582663"><ele>118.0</ele><time>2026-03-30T23:58:30.999Z</time></trkpt><trkpt lat="49.06009806585685" lon="2.5052185678668843"><ele>118.0</ele><time>2026-03-30T23:58:35.999Z</time></trkpt><trkpt lat="49.06002004465953" lon="2.5052128070417305"><ele>118.0</ele><time>2026-03-30T23:58:45.999Z</time></trkpt><trkpt lat="49.05994926923945" lon="2.5052127776224618"><ele>118.0</ele><time>2026-03-30T23:58:50.998Z</time></trkpt></trkseg></trk></gpx>